<?xml version="1.0" encoding="UTF-8" standalone="no" ?>
<gpx xmlns="http://www.topografix.com/GPX/1/1" xmlns:xsi="http://www.w3.org/2001/XMLSchema-instance" xsi:schemaLocation="http://www.topografix.com/GPX/1/1 http://www.topografix.com/GPX/1/1/gpx.xsd" version="1.1" creator="VisuGPX - https://www.visugpx.com">
  <metadata>
    <name>Tour d'Andresy - Maurecourt MA-Rando-2019-07-04</name>
  </metadata>
  <trk>
    <name><![CDATA[MA-Rando-2019-07-04-204322]]></name>
    <trkseg>
      <trkpt lat="48.98803" lon="2.07515">
        <ele>23</ele>
        <time>2019-07-04T17:35:49Z</time>
      </trkpt>
      <trkpt lat="48.98799" lon="2.075">
        <ele>23</ele>
        <time>2019-07-04T17:35:57Z</time>
      </trkpt>
      <trkpt lat="48.98797" lon="2.07485">
        <ele>24</ele>
        <time>2019-07-04T17:36:04Z</time>
      </trkpt>
      <trkpt lat="48.98799" lon="2.07468">
        <ele>24</ele>
        <time>2019-07-04T17:36:10Z</time>
      </trkpt>
      <trkpt lat="48.98804" lon="2.07456">
        <ele>24</ele>
        <time>2019-07-04T17:36:16Z</time>
      </trkpt>
      <trkpt lat="48.98812" lon="2.07445">
        <ele>24</ele>
        <time>2019-07-04T17:36:23Z</time>
      </trkpt>
      <trkpt lat="48.98818" lon="2.07434">
        <ele>24</ele>
        <time>2019-07-04T17:36:29Z</time>
      </trkpt>
      <trkpt lat="48.98818" lon="2.07419">
        <ele>24</ele>
        <time>2019-07-04T17:36:36Z</time>
      </trkpt>
      <trkpt lat="48.98814" lon="2.07406">
        <ele>23</ele>
        <time>2019-07-04T17:36:44Z</time>
      </trkpt>
      <trkpt lat="48.98818" lon="2.07394">
        <ele>23</ele>
        <time>2019-07-04T17:36:50Z</time>
      </trkpt>
      <trkpt lat="48.98822" lon="2.0738">
        <ele>23</ele>
        <time>2019-07-04T17:36:59Z</time>
      </trkpt>
      <trkpt lat="48.98826" lon="2.07366">
        <ele>23</ele>
        <time>2019-07-04T17:37:07Z</time>
      </trkpt>
      <trkpt lat="48.98833" lon="2.07356">
        <ele>23</ele>
        <time>2019-07-04T17:37:13Z</time>
      </trkpt>
      <trkpt lat="48.9884" lon="2.07346">
        <ele>24</ele>
        <time>2019-07-04T17:37:19Z</time>
      </trkpt>
      <trkpt lat="48.98845" lon="2.07335">
        <ele>24</ele>
        <time>2019-07-04T17:37:27Z</time>
      </trkpt>
      <trkpt lat="48.9885" lon="2.07322">
        <ele>24</ele>
        <time>2019-07-04T17:37:36Z</time>
      </trkpt>
      <trkpt lat="48.98855" lon="2.07311">
        <ele>23</ele>
        <time>2019-07-04T17:37:42Z</time>
      </trkpt>
      <trkpt lat="48.98862" lon="2.073">
        <ele>23</ele>
        <time>2019-07-04T17:37:52Z</time>
      </trkpt>
      <trkpt lat="48.98865" lon="2.07284">
        <ele>23</ele>
        <time>2019-07-04T17:37:58Z</time>
      </trkpt>
      <trkpt lat="48.9887" lon="2.07271">
        <ele>23</ele>
        <time>2019-07-04T17:38:06Z</time>
      </trkpt>
      <trkpt lat="48.98875" lon="2.07257">
        <ele>23</ele>
        <time>2019-07-04T17:38:13Z</time>
      </trkpt>
      <trkpt lat="48.98881" lon="2.07244">
        <ele>22</ele>
        <time>2019-07-04T17:38:21Z</time>
      </trkpt>
      <trkpt lat="48.98885" lon="2.07231">
        <ele>21</ele>
        <time>2019-07-04T17:38:28Z</time>
      </trkpt>
      <trkpt lat="48.9889" lon="2.07218">
        <ele>21</ele>
        <time>2019-07-04T17:38:36Z</time>
      </trkpt>
      <trkpt lat="48.98894" lon="2.07203">
        <ele>21</ele>
        <time>2019-07-04T17:38:44Z</time>
      </trkpt>
      <trkpt lat="48.98899" lon="2.0719">
        <ele>21</ele>
        <time>2019-07-04T17:38:52Z</time>
      </trkpt>
      <trkpt lat="48.98903" lon="2.07178">
        <ele>20</ele>
        <time>2019-07-04T17:39:00Z</time>
      </trkpt>
      <trkpt lat="48.98908" lon="2.07164">
        <ele>19</ele>
        <time>2019-07-04T17:39:07Z</time>
      </trkpt>
      <trkpt lat="48.98913" lon="2.07153">
        <ele>20</ele>
        <time>2019-07-04T17:39:13Z</time>
      </trkpt>
      <trkpt lat="48.98919" lon="2.0714">
        <ele>20</ele>
        <time>2019-07-04T17:39:21Z</time>
      </trkpt>
      <trkpt lat="48.98923" lon="2.07127">
        <ele>20</ele>
        <time>2019-07-04T17:39:27Z</time>
      </trkpt>
      <trkpt lat="48.98928" lon="2.07114">
        <ele>20</ele>
        <time>2019-07-04T17:39:34Z</time>
      </trkpt>
      <trkpt lat="48.98933" lon="2.071">
        <ele>20</ele>
        <time>2019-07-04T17:39:40Z</time>
      </trkpt>
      <trkpt lat="48.98938" lon="2.07087">
        <ele>20</ele>
        <time>2019-07-04T17:39:47Z</time>
      </trkpt>
      <trkpt lat="48.98945" lon="2.07077">
        <ele>22</ele>
        <time>2019-07-04T17:39:55Z</time>
      </trkpt>
      <trkpt lat="48.98949" lon="2.07064">
        <ele>22</ele>
        <time>2019-07-04T17:40:04Z</time>
      </trkpt>
      <trkpt lat="48.9895" lon="2.07078">
        <ele>22</ele>
        <time>2019-07-04T17:40:20Z</time>
      </trkpt>
      <trkpt lat="48.98949" lon="2.07092">
        <ele>20</ele>
        <time>2019-07-04T17:40:26Z</time>
      </trkpt>
      <trkpt lat="48.98953" lon="2.07106">
        <ele>20</ele>
        <time>2019-07-04T17:40:33Z</time>
      </trkpt>
      <trkpt lat="48.98959" lon="2.07119">
        <ele>20</ele>
        <time>2019-07-04T17:40:40Z</time>
      </trkpt>
      <trkpt lat="48.98967" lon="2.07123">
        <ele>20</ele>
        <time>2019-07-04T17:40:47Z</time>
      </trkpt>
      <trkpt lat="48.98978" lon="2.07126">
        <ele>20</ele>
        <time>2019-07-04T17:40:53Z</time>
      </trkpt>
      <trkpt lat="48.98986" lon="2.07129">
        <ele>20</ele>
        <time>2019-07-04T17:40:59Z</time>
      </trkpt>
      <trkpt lat="48.98996" lon="2.07129">
        <ele>20</ele>
        <time>2019-07-04T17:41:07Z</time>
      </trkpt>
      <trkpt lat="48.99005" lon="2.07131">
        <ele>21</ele>
        <time>2019-07-04T17:41:13Z</time>
      </trkpt>
      <trkpt lat="48.99014" lon="2.07137">
        <ele>20</ele>
        <time>2019-07-04T17:41:20Z</time>
      </trkpt>
      <trkpt lat="48.99023" lon="2.07141">
        <ele>21</ele>
        <time>2019-07-04T17:41:26Z</time>
      </trkpt>
      <trkpt lat="48.99033" lon="2.07143">
        <ele>21</ele>
        <time>2019-07-04T17:41:34Z</time>
      </trkpt>
      <trkpt lat="48.99042" lon="2.07146">
        <ele>21</ele>
        <time>2019-07-04T17:41:40Z</time>
      </trkpt>
      <trkpt lat="48.99053" lon="2.07145">
        <ele>21</ele>
        <time>2019-07-04T17:41:46Z</time>
      </trkpt>
      <trkpt lat="48.99062" lon="2.07146">
        <ele>21</ele>
        <time>2019-07-04T17:41:53Z</time>
      </trkpt>
      <trkpt lat="48.99072" lon="2.07147">
        <ele>21</ele>
        <time>2019-07-04T17:42:00Z</time>
      </trkpt>
      <trkpt lat="48.99082" lon="2.07152">
        <ele>21</ele>
        <time>2019-07-04T17:42:08Z</time>
      </trkpt>
      <trkpt lat="48.99091" lon="2.07152">
        <ele>22</ele>
        <time>2019-07-04T17:42:14Z</time>
      </trkpt>
      <trkpt lat="48.99099" lon="2.07157">
        <ele>22</ele>
        <time>2019-07-04T17:42:20Z</time>
      </trkpt>
      <trkpt lat="48.99108" lon="2.07161">
        <ele>22</ele>
        <time>2019-07-04T17:42:26Z</time>
      </trkpt>
      <trkpt lat="48.99119" lon="2.07161">
        <ele>22</ele>
        <time>2019-07-04T17:42:32Z</time>
      </trkpt>
      <trkpt lat="48.99129" lon="2.07163">
        <ele>22</ele>
        <time>2019-07-04T17:42:39Z</time>
      </trkpt>
      <trkpt lat="48.99139" lon="2.07165">
        <ele>22</ele>
        <time>2019-07-04T17:42:46Z</time>
      </trkpt>
      <trkpt lat="48.99148" lon="2.07162">
        <ele>22</ele>
        <time>2019-07-04T17:42:57Z</time>
      </trkpt>
      <trkpt lat="48.99158" lon="2.07155">
        <ele>22</ele>
        <time>2019-07-04T17:43:01Z</time>
      </trkpt>
      <trkpt lat="48.99167" lon="2.07153">
        <ele>22</ele>
        <time>2019-07-04T17:43:08Z</time>
      </trkpt>
      <trkpt lat="48.99177" lon="2.07149">
        <ele>22</ele>
        <time>2019-07-04T17:43:14Z</time>
      </trkpt>
      <trkpt lat="48.99186" lon="2.07151">
        <ele>22</ele>
        <time>2019-07-04T17:43:23Z</time>
      </trkpt>
      <trkpt lat="48.99195" lon="2.07155">
        <ele>22</ele>
        <time>2019-07-04T17:43:31Z</time>
      </trkpt>
      <trkpt lat="48.99205" lon="2.07155">
        <ele>22</ele>
        <time>2019-07-04T17:43:37Z</time>
      </trkpt>
      <trkpt lat="48.99214" lon="2.07154">
        <ele>22</ele>
        <time>2019-07-04T17:43:43Z</time>
      </trkpt>
      <trkpt lat="48.99223" lon="2.07155">
        <ele>21</ele>
        <time>2019-07-04T17:43:49Z</time>
      </trkpt>
      <trkpt lat="48.99233" lon="2.07156">
        <ele>21</ele>
        <time>2019-07-04T17:43:55Z</time>
      </trkpt>
      <trkpt lat="48.99242" lon="2.07153">
        <ele>21</ele>
        <time>2019-07-04T17:44:03Z</time>
      </trkpt>
      <trkpt lat="48.99252" lon="2.07149">
        <ele>20</ele>
        <time>2019-07-04T17:44:09Z</time>
      </trkpt>
      <trkpt lat="48.99261" lon="2.07149">
        <ele>20</ele>
        <time>2019-07-04T17:44:16Z</time>
      </trkpt>
      <trkpt lat="48.99271" lon="2.07148">
        <ele>20</ele>
        <time>2019-07-04T17:44:22Z</time>
      </trkpt>
      <trkpt lat="48.9928" lon="2.07148">
        <ele>20</ele>
        <time>2019-07-04T17:44:28Z</time>
      </trkpt>
      <trkpt lat="48.9929" lon="2.07146">
        <ele>20</ele>
        <time>2019-07-04T17:44:34Z</time>
      </trkpt>
      <trkpt lat="48.99299" lon="2.07142">
        <ele>21</ele>
        <time>2019-07-04T17:44:40Z</time>
      </trkpt>
      <trkpt lat="48.99307" lon="2.07135">
        <ele>21</ele>
        <time>2019-07-04T17:44:46Z</time>
      </trkpt>
      <trkpt lat="48.99316" lon="2.07128">
        <ele>21</ele>
        <time>2019-07-04T17:44:53Z</time>
      </trkpt>
      <trkpt lat="48.99325" lon="2.07123">
        <ele>21</ele>
        <time>2019-07-04T17:45:00Z</time>
      </trkpt>
      <trkpt lat="48.99334" lon="2.07118">
        <ele>21</ele>
        <time>2019-07-04T17:45:06Z</time>
      </trkpt>
      <trkpt lat="48.99342" lon="2.07109">
        <ele>21</ele>
        <time>2019-07-04T17:45:13Z</time>
      </trkpt>
      <trkpt lat="48.99351" lon="2.07102">
        <ele>21</ele>
        <time>2019-07-04T17:45:21Z</time>
      </trkpt>
      <trkpt lat="48.99361" lon="2.07098">
        <ele>21</ele>
        <time>2019-07-04T17:45:28Z</time>
      </trkpt>
      <trkpt lat="48.9937" lon="2.07092">
        <ele>21</ele>
        <time>2019-07-04T17:45:34Z</time>
      </trkpt>
      <trkpt lat="48.99378" lon="2.07087">
        <ele>21</ele>
        <time>2019-07-04T17:45:39Z</time>
      </trkpt>
      <trkpt lat="48.99387" lon="2.07084">
        <ele>21</ele>
        <time>2019-07-04T17:45:45Z</time>
      </trkpt>
      <trkpt lat="48.99397" lon="2.07081">
        <ele>22</ele>
        <time>2019-07-04T17:45:51Z</time>
      </trkpt>
      <trkpt lat="48.99406" lon="2.07077">
        <ele>21</ele>
        <time>2019-07-04T17:45:58Z</time>
      </trkpt>
      <trkpt lat="48.99415" lon="2.07073">
        <ele>21</ele>
        <time>2019-07-04T17:46:05Z</time>
      </trkpt>
      <trkpt lat="48.99424" lon="2.0707">
        <ele>21</ele>
        <time>2019-07-04T17:46:13Z</time>
      </trkpt>
      <trkpt lat="48.99434" lon="2.07067">
        <ele>21</ele>
        <time>2019-07-04T17:46:19Z</time>
      </trkpt>
      <trkpt lat="48.99444" lon="2.07065">
        <ele>21</ele>
        <time>2019-07-04T17:46:25Z</time>
      </trkpt>
      <trkpt lat="48.99454" lon="2.07062">
        <ele>21</ele>
        <time>2019-07-04T17:46:31Z</time>
      </trkpt>
      <trkpt lat="48.99464" lon="2.07064">
        <ele>21</ele>
        <time>2019-07-04T17:46:39Z</time>
      </trkpt>
      <trkpt lat="48.99474" lon="2.07062">
        <ele>21</ele>
        <time>2019-07-04T17:46:46Z</time>
      </trkpt>
      <trkpt lat="48.99484" lon="2.07063">
        <ele>20</ele>
        <time>2019-07-04T17:46:52Z</time>
      </trkpt>
      <trkpt lat="48.99494" lon="2.07063">
        <ele>20</ele>
        <time>2019-07-04T17:46:57Z</time>
      </trkpt>
      <trkpt lat="48.99504" lon="2.07063">
        <ele>20</ele>
        <time>2019-07-04T17:47:02Z</time>
      </trkpt>
      <trkpt lat="48.99513" lon="2.07062">
        <ele>20</ele>
        <time>2019-07-04T17:47:08Z</time>
      </trkpt>
      <trkpt lat="48.99522" lon="2.07062">
        <ele>20</ele>
        <time>2019-07-04T17:47:15Z</time>
      </trkpt>
      <trkpt lat="48.99531" lon="2.07059">
        <ele>20</ele>
        <time>2019-07-04T17:47:22Z</time>
      </trkpt>
      <trkpt lat="48.9954" lon="2.07061">
        <ele>20</ele>
        <time>2019-07-04T17:47:29Z</time>
      </trkpt>
      <trkpt lat="48.99551" lon="2.0706">
        <ele>20</ele>
        <time>2019-07-04T17:47:36Z</time>
      </trkpt>
      <trkpt lat="48.9956" lon="2.0706">
        <ele>20</ele>
        <time>2019-07-04T17:47:43Z</time>
      </trkpt>
      <trkpt lat="48.99569" lon="2.07062">
        <ele>20</ele>
        <time>2019-07-04T17:47:48Z</time>
      </trkpt>
      <trkpt lat="48.99579" lon="2.07063">
        <ele>20</ele>
        <time>2019-07-04T17:47:53Z</time>
      </trkpt>
      <trkpt lat="48.99588" lon="2.07064">
        <ele>20</ele>
        <time>2019-07-04T17:48:01Z</time>
      </trkpt>
      <trkpt lat="48.99598" lon="2.07064">
        <ele>20</ele>
        <time>2019-07-04T17:48:07Z</time>
      </trkpt>
      <trkpt lat="48.99607" lon="2.07066">
        <ele>20</ele>
        <time>2019-07-04T17:48:12Z</time>
      </trkpt>
      <trkpt lat="48.99617" lon="2.07065">
        <ele>20</ele>
        <time>2019-07-04T17:48:21Z</time>
      </trkpt>
      <trkpt lat="48.99627" lon="2.07065">
        <ele>20</ele>
        <time>2019-07-04T17:48:28Z</time>
      </trkpt>
      <trkpt lat="48.99636" lon="2.07067">
        <ele>20</ele>
        <time>2019-07-04T17:48:33Z</time>
      </trkpt>
      <trkpt lat="48.99645" lon="2.0707">
        <ele>20</ele>
        <time>2019-07-04T17:48:40Z</time>
      </trkpt>
      <trkpt lat="48.99656" lon="2.07071">
        <ele>20</ele>
        <time>2019-07-04T17:48:48Z</time>
      </trkpt>
      <trkpt lat="48.99665" lon="2.07075">
        <ele>19</ele>
        <time>2019-07-04T17:48:53Z</time>
      </trkpt>
      <trkpt lat="48.99674" lon="2.07077">
        <ele>20</ele>
        <time>2019-07-04T17:48:59Z</time>
      </trkpt>
      <trkpt lat="48.99685" lon="2.07079">
        <ele>20</ele>
        <time>2019-07-04T17:49:07Z</time>
      </trkpt>
      <trkpt lat="48.99695" lon="2.07081">
        <ele>20</ele>
        <time>2019-07-04T17:49:13Z</time>
      </trkpt>
      <trkpt lat="48.99704" lon="2.07084">
        <ele>20</ele>
        <time>2019-07-04T17:49:19Z</time>
      </trkpt>
      <trkpt lat="48.99712" lon="2.07091">
        <ele>20</ele>
        <time>2019-07-04T17:49:27Z</time>
      </trkpt>
      <trkpt lat="48.99722" lon="2.07097">
        <ele>20</ele>
        <time>2019-07-04T17:49:33Z</time>
      </trkpt>
      <trkpt lat="48.99731" lon="2.07099">
        <ele>20</ele>
        <time>2019-07-04T17:49:41Z</time>
      </trkpt>
      <trkpt lat="48.99742" lon="2.07103">
        <ele>20</ele>
        <time>2019-07-04T17:49:48Z</time>
      </trkpt>
      <trkpt lat="48.99751" lon="2.07109">
        <ele>20</ele>
        <time>2019-07-04T17:49:56Z</time>
      </trkpt>
      <trkpt lat="48.99761" lon="2.07115">
        <ele>20</ele>
        <time>2019-07-04T17:50:03Z</time>
      </trkpt>
      <trkpt lat="48.9977" lon="2.07117">
        <ele>20</ele>
        <time>2019-07-04T17:50:10Z</time>
      </trkpt>
      <trkpt lat="48.99779" lon="2.07123">
        <ele>20</ele>
        <time>2019-07-04T17:50:23Z</time>
      </trkpt>
      <trkpt lat="48.99788" lon="2.07128">
        <ele>20</ele>
        <time>2019-07-04T17:50:29Z</time>
      </trkpt>
      <trkpt lat="48.99798" lon="2.07133">
        <ele>20</ele>
        <time>2019-07-04T17:50:37Z</time>
      </trkpt>
      <trkpt lat="48.99806" lon="2.0714">
        <ele>20</ele>
        <time>2019-07-04T17:50:43Z</time>
      </trkpt>
      <trkpt lat="48.99815" lon="2.07145">
        <ele>20</ele>
        <time>2019-07-04T17:50:50Z</time>
      </trkpt>
      <trkpt lat="48.99824" lon="2.0715">
        <ele>20</ele>
        <time>2019-07-04T17:50:55Z</time>
      </trkpt>
      <trkpt lat="48.99834" lon="2.07151">
        <ele>20</ele>
        <time>2019-07-04T17:51:03Z</time>
      </trkpt>
      <trkpt lat="48.99843" lon="2.07151">
        <ele>20</ele>
        <time>2019-07-04T17:51:09Z</time>
      </trkpt>
      <trkpt lat="48.99852" lon="2.07149">
        <ele>20</ele>
        <time>2019-07-04T17:51:15Z</time>
      </trkpt>
      <trkpt lat="48.99861" lon="2.07148">
        <ele>21</ele>
        <time>2019-07-04T17:51:21Z</time>
      </trkpt>
      <trkpt lat="48.9987" lon="2.07144">
        <ele>21</ele>
        <time>2019-07-04T17:51:29Z</time>
      </trkpt>
      <trkpt lat="48.99878" lon="2.07135">
        <ele>21</ele>
        <time>2019-07-04T17:51:37Z</time>
      </trkpt>
      <trkpt lat="48.99885" lon="2.07124">
        <ele>21</ele>
        <time>2019-07-04T17:51:45Z</time>
      </trkpt>
      <trkpt lat="48.99893" lon="2.07114">
        <ele>21</ele>
        <time>2019-07-04T17:51:51Z</time>
      </trkpt>
      <trkpt lat="48.99902" lon="2.07112">
        <ele>21</ele>
        <time>2019-07-04T17:51:59Z</time>
      </trkpt>
      <trkpt lat="48.99912" lon="2.07114">
        <ele>21</ele>
        <time>2019-07-04T17:52:07Z</time>
      </trkpt>
      <trkpt lat="48.99922" lon="2.07113">
        <ele>22</ele>
        <time>2019-07-04T17:52:13Z</time>
      </trkpt>
      <trkpt lat="48.99932" lon="2.07112">
        <ele>22</ele>
        <time>2019-07-04T17:52:19Z</time>
      </trkpt>
      <trkpt lat="48.99941" lon="2.07109">
        <ele>22</ele>
        <time>2019-07-04T17:52:25Z</time>
      </trkpt>
      <trkpt lat="48.99949" lon="2.07105">
        <ele>22</ele>
        <time>2019-07-04T17:52:30Z</time>
      </trkpt>
      <trkpt lat="48.99959" lon="2.07101">
        <ele>22</ele>
        <time>2019-07-04T17:52:36Z</time>
      </trkpt>
      <trkpt lat="48.99968" lon="2.07097">
        <ele>22</ele>
        <time>2019-07-04T17:52:42Z</time>
      </trkpt>
      <trkpt lat="48.99976" lon="2.0709">
        <ele>22</ele>
        <time>2019-07-04T17:52:50Z</time>
      </trkpt>
      <trkpt lat="48.99983" lon="2.0708">
        <ele>23</ele>
        <time>2019-07-04T17:52:57Z</time>
      </trkpt>
      <trkpt lat="48.99992" lon="2.07075">
        <ele>23</ele>
        <time>2019-07-04T17:53:05Z</time>
      </trkpt>
      <trkpt lat="49.00001" lon="2.07076">
        <ele>23</ele>
        <time>2019-07-04T17:53:12Z</time>
      </trkpt>
      <trkpt lat="49.0001" lon="2.0708">
        <ele>23</ele>
        <time>2019-07-04T17:53:21Z</time>
      </trkpt>
      <trkpt lat="49.00018" lon="2.07088">
        <ele>23</ele>
        <time>2019-07-04T17:53:30Z</time>
      </trkpt>
      <trkpt lat="49.00027" lon="2.07098">
        <ele>23</ele>
        <time>2019-07-04T17:53:36Z</time>
      </trkpt>
      <trkpt lat="49.00035" lon="2.07105">
        <ele>23</ele>
        <time>2019-07-04T17:53:44Z</time>
      </trkpt>
      <trkpt lat="49.00043" lon="2.0711">
        <ele>22</ele>
        <time>2019-07-04T17:53:50Z</time>
      </trkpt>
      <trkpt lat="49.00052" lon="2.07111">
        <ele>22</ele>
        <time>2019-07-04T17:53:56Z</time>
      </trkpt>
      <trkpt lat="49.00062" lon="2.07109">
        <ele>23</ele>
        <time>2019-07-04T17:54:02Z</time>
      </trkpt>
      <trkpt lat="49.00071" lon="2.07106">
        <ele>23</ele>
        <time>2019-07-04T17:54:10Z</time>
      </trkpt>
      <trkpt lat="49.00081" lon="2.07102">
        <ele>23</ele>
        <time>2019-07-04T17:54:16Z</time>
      </trkpt>
      <trkpt lat="49.0009" lon="2.07099">
        <ele>23</ele>
        <time>2019-07-04T17:54:24Z</time>
      </trkpt>
      <trkpt lat="49.00101" lon="2.07104">
        <ele>23</ele>
        <time>2019-07-04T17:54:30Z</time>
      </trkpt>
      <trkpt lat="49.0011" lon="2.07106">
        <ele>23</ele>
        <time>2019-07-04T17:54:37Z</time>
      </trkpt>
      <trkpt lat="49.00101" lon="2.07099">
        <ele>23</ele>
        <time>2019-07-04T17:55:15Z</time>
      </trkpt>
      <trkpt lat="49.00098" lon="2.07083">
        <ele>24</ele>
        <time>2019-07-04T17:55:21Z</time>
      </trkpt>
      <trkpt lat="49.00098" lon="2.07068">
        <ele>24</ele>
        <time>2019-07-04T17:55:29Z</time>
      </trkpt>
      <trkpt lat="49.00097" lon="2.07054">
        <ele>23</ele>
        <time>2019-07-04T17:55:38Z</time>
      </trkpt>
      <trkpt lat="49.00096" lon="2.07039">
        <ele>23</ele>
        <time>2019-07-04T17:55:45Z</time>
      </trkpt>
      <trkpt lat="49.00093" lon="2.07025">
        <ele>23</ele>
        <time>2019-07-04T17:55:52Z</time>
      </trkpt>
      <trkpt lat="49.0009" lon="2.07012">
        <ele>23</ele>
        <time>2019-07-04T17:56:00Z</time>
      </trkpt>
      <trkpt lat="49.00086" lon="2.06999">
        <ele>23</ele>
        <time>2019-07-04T17:56:07Z</time>
      </trkpt>
      <trkpt lat="49.00084" lon="2.06985">
        <ele>23</ele>
        <time>2019-07-04T17:56:13Z</time>
      </trkpt>
      <trkpt lat="49.00081" lon="2.06971">
        <ele>23</ele>
        <time>2019-07-04T17:56:19Z</time>
      </trkpt>
      <trkpt lat="49.00078" lon="2.06957">
        <ele>22</ele>
        <time>2019-07-04T17:56:26Z</time>
      </trkpt>
      <trkpt lat="49.00077" lon="2.06943">
        <ele>22</ele>
        <time>2019-07-04T17:56:32Z</time>
      </trkpt>
      <trkpt lat="49.00075" lon="2.06928">
        <ele>22</ele>
        <time>2019-07-04T17:56:41Z</time>
      </trkpt>
      <trkpt lat="49.00072" lon="2.06914">
        <ele>22</ele>
        <time>2019-07-04T17:56:49Z</time>
      </trkpt>
      <trkpt lat="49.00069" lon="2.069">
        <ele>22</ele>
        <time>2019-07-04T17:56:57Z</time>
      </trkpt>
      <trkpt lat="49.00066" lon="2.06887">
        <ele>22</ele>
        <time>2019-07-04T17:57:09Z</time>
      </trkpt>
      <trkpt lat="49.00063" lon="2.06874">
        <ele>22</ele>
        <time>2019-07-04T17:57:21Z</time>
      </trkpt>
      <trkpt lat="49.00061" lon="2.06858">
        <ele>22</ele>
        <time>2019-07-04T17:57:29Z</time>
      </trkpt>
      <trkpt lat="49.00058" lon="2.06844">
        <ele>22</ele>
        <time>2019-07-04T17:57:36Z</time>
      </trkpt>
      <trkpt lat="49.00054" lon="2.06832">
        <ele>23</ele>
        <time>2019-07-04T17:57:42Z</time>
      </trkpt>
      <trkpt lat="49.00052" lon="2.06818">
        <ele>23</ele>
        <time>2019-07-04T17:57:50Z</time>
      </trkpt>
      <trkpt lat="49.00049" lon="2.06805">
        <ele>24</ele>
        <time>2019-07-04T17:57:56Z</time>
      </trkpt>
      <trkpt lat="49.00045" lon="2.06792">
        <ele>24</ele>
        <time>2019-07-04T17:58:01Z</time>
      </trkpt>
      <trkpt lat="49.00043" lon="2.06777">
        <ele>24</ele>
        <time>2019-07-04T17:58:09Z</time>
      </trkpt>
      <trkpt lat="49.00041" lon="2.06762">
        <ele>24</ele>
        <time>2019-07-04T17:58:16Z</time>
      </trkpt>
      <trkpt lat="49.00039" lon="2.06747">
        <ele>25</ele>
        <time>2019-07-04T17:58:23Z</time>
      </trkpt>
      <trkpt lat="49.00039" lon="2.06733">
        <ele>25</ele>
        <time>2019-07-04T17:58:29Z</time>
      </trkpt>
      <trkpt lat="49.00037" lon="2.06718">
        <ele>25</ele>
        <time>2019-07-04T17:58:35Z</time>
      </trkpt>
      <trkpt lat="49.00037" lon="2.06703">
        <ele>25</ele>
        <time>2019-07-04T17:58:44Z</time>
      </trkpt>
      <trkpt lat="49.00035" lon="2.06689">
        <ele>25</ele>
        <time>2019-07-04T17:58:51Z</time>
      </trkpt>
      <trkpt lat="49.00031" lon="2.06675">
        <ele>25</ele>
        <time>2019-07-04T17:58:59Z</time>
      </trkpt>
      <trkpt lat="49.00027" lon="2.06662">
        <ele>26</ele>
        <time>2019-07-04T17:59:06Z</time>
      </trkpt>
      <trkpt lat="49.00024" lon="2.06647">
        <ele>26</ele>
        <time>2019-07-04T17:59:13Z</time>
      </trkpt>
      <trkpt lat="49.0002" lon="2.06633">
        <ele>26</ele>
        <time>2019-07-04T17:59:22Z</time>
      </trkpt>
      <trkpt lat="49.00017" lon="2.06619">
        <ele>26</ele>
        <time>2019-07-04T17:59:27Z</time>
      </trkpt>
      <trkpt lat="49.00015" lon="2.06605">
        <ele>26</ele>
        <time>2019-07-04T17:59:35Z</time>
      </trkpt>
      <trkpt lat="49.00015" lon="2.06591">
        <ele>26</ele>
        <time>2019-07-04T17:59:41Z</time>
      </trkpt>
      <trkpt lat="49.00013" lon="2.06577">
        <ele>26</ele>
        <time>2019-07-04T17:59:49Z</time>
      </trkpt>
      <trkpt lat="49.0001" lon="2.06563">
        <ele>26</ele>
        <time>2019-07-04T17:59:56Z</time>
      </trkpt>
      <trkpt lat="49.00008" lon="2.0655">
        <ele>26</ele>
        <time>2019-07-04T18:00:02Z</time>
      </trkpt>
      <trkpt lat="49.00004" lon="2.06537">
        <ele>26</ele>
        <time>2019-07-04T18:00:07Z</time>
      </trkpt>
      <trkpt lat="49.00001" lon="2.06523">
        <ele>25</ele>
        <time>2019-07-04T18:00:14Z</time>
      </trkpt>
      <trkpt lat="49" lon="2.06508">
        <ele>24</ele>
        <time>2019-07-04T18:00:21Z</time>
      </trkpt>
      <trkpt lat="48.99997" lon="2.06494">
        <ele>24</ele>
        <time>2019-07-04T18:00:27Z</time>
      </trkpt>
      <trkpt lat="48.99996" lon="2.0648">
        <ele>23</ele>
        <time>2019-07-04T18:00:35Z</time>
      </trkpt>
      <trkpt lat="48.99993" lon="2.06466">
        <ele>23</ele>
        <time>2019-07-04T18:00:43Z</time>
      </trkpt>
      <trkpt lat="48.9999" lon="2.06451">
        <ele>23</ele>
        <time>2019-07-04T18:00:50Z</time>
      </trkpt>
      <trkpt lat="48.99987" lon="2.06437">
        <ele>23</ele>
        <time>2019-07-04T18:00:57Z</time>
      </trkpt>
      <trkpt lat="48.99983" lon="2.06425">
        <ele>23</ele>
        <time>2019-07-04T18:01:03Z</time>
      </trkpt>
      <trkpt lat="48.99978" lon="2.06412">
        <ele>24</ele>
        <time>2019-07-04T18:01:11Z</time>
      </trkpt>
      <trkpt lat="48.99975" lon="2.06396">
        <ele>24</ele>
        <time>2019-07-04T18:01:17Z</time>
      </trkpt>
      <trkpt lat="48.99972" lon="2.06383">
        <ele>24</ele>
        <time>2019-07-04T18:01:24Z</time>
      </trkpt>
      <trkpt lat="48.9997" lon="2.06368">
        <ele>24</ele>
        <time>2019-07-04T18:01:33Z</time>
      </trkpt>
      <trkpt lat="48.99967" lon="2.06354">
        <ele>24</ele>
        <time>2019-07-04T18:01:40Z</time>
      </trkpt>
      <trkpt lat="48.99965" lon="2.0634">
        <ele>24</ele>
        <time>2019-07-04T18:01:46Z</time>
      </trkpt>
      <trkpt lat="48.99962" lon="2.06327">
        <ele>24</ele>
        <time>2019-07-04T18:01:52Z</time>
      </trkpt>
      <trkpt lat="48.99958" lon="2.06312">
        <ele>24</ele>
        <time>2019-07-04T18:02:00Z</time>
      </trkpt>
      <trkpt lat="48.99956" lon="2.06298">
        <ele>24</ele>
        <time>2019-07-04T18:02:08Z</time>
      </trkpt>
      <trkpt lat="48.99954" lon="2.06284">
        <ele>24</ele>
        <time>2019-07-04T18:02:14Z</time>
      </trkpt>
      <trkpt lat="48.99952" lon="2.06268">
        <ele>24</ele>
        <time>2019-07-04T18:02:23Z</time>
      </trkpt>
      <trkpt lat="48.99949" lon="2.06254">
        <ele>24</ele>
        <time>2019-07-04T18:02:30Z</time>
      </trkpt>
      <trkpt lat="48.99947" lon="2.06239">
        <ele>24</ele>
        <time>2019-07-04T18:02:37Z</time>
      </trkpt>
      <trkpt lat="48.99944" lon="2.06224">
        <ele>24</ele>
        <time>2019-07-04T18:02:45Z</time>
      </trkpt>
      <trkpt lat="48.9994" lon="2.06211">
        <ele>24</ele>
        <time>2019-07-04T18:02:53Z</time>
      </trkpt>
      <trkpt lat="48.99938" lon="2.06197">
        <ele>24</ele>
        <time>2019-07-04T18:03:01Z</time>
      </trkpt>
      <trkpt lat="48.99936" lon="2.06182">
        <ele>24</ele>
        <time>2019-07-04T18:03:09Z</time>
      </trkpt>
      <trkpt lat="48.99932" lon="2.0617">
        <ele>25</ele>
        <time>2019-07-04T18:03:15Z</time>
      </trkpt>
      <trkpt lat="48.99929" lon="2.06156">
        <ele>25</ele>
        <time>2019-07-04T18:03:23Z</time>
      </trkpt>
      <trkpt lat="48.9993" lon="2.06142">
        <ele>25</ele>
        <time>2019-07-04T18:03:33Z</time>
      </trkpt>
      <trkpt lat="48.99928" lon="2.06128">
        <ele>25</ele>
        <time>2019-07-04T18:03:40Z</time>
      </trkpt>
      <trkpt lat="48.99925" lon="2.06112">
        <ele>25</ele>
        <time>2019-07-04T18:03:47Z</time>
      </trkpt>
      <trkpt lat="48.99924" lon="2.06097">
        <ele>25</ele>
        <time>2019-07-04T18:03:53Z</time>
      </trkpt>
      <trkpt lat="48.99921" lon="2.06084">
        <ele>26</ele>
        <time>2019-07-04T18:03:59Z</time>
      </trkpt>
      <trkpt lat="48.99918" lon="2.06071">
        <ele>26</ele>
        <time>2019-07-04T18:04:07Z</time>
      </trkpt>
      <trkpt lat="48.99916" lon="2.06057">
        <ele>26</ele>
        <time>2019-07-04T18:04:13Z</time>
      </trkpt>
      <trkpt lat="48.99915" lon="2.06043">
        <ele>26</ele>
        <time>2019-07-04T18:04:19Z</time>
      </trkpt>
      <trkpt lat="48.99912" lon="2.06029">
        <ele>26</ele>
        <time>2019-07-04T18:04:26Z</time>
      </trkpt>
      <trkpt lat="48.99908" lon="2.06015">
        <ele>26</ele>
        <time>2019-07-04T18:04:34Z</time>
      </trkpt>
      <trkpt lat="48.99906" lon="2.05999">
        <ele>27</ele>
        <time>2019-07-04T18:04:41Z</time>
      </trkpt>
      <trkpt lat="48.99903" lon="2.05986">
        <ele>27</ele>
        <time>2019-07-04T18:04:47Z</time>
      </trkpt>
      <trkpt lat="48.99901" lon="2.05973">
        <ele>27</ele>
        <time>2019-07-04T18:04:53Z</time>
      </trkpt>
      <trkpt lat="48.99898" lon="2.05959">
        <ele>28</ele>
        <time>2019-07-04T18:05:01Z</time>
      </trkpt>
      <trkpt lat="48.99896" lon="2.05945">
        <ele>28</ele>
        <time>2019-07-04T18:05:09Z</time>
      </trkpt>
      <trkpt lat="48.99892" lon="2.05931">
        <ele>28</ele>
        <time>2019-07-04T18:05:16Z</time>
      </trkpt>
      <trkpt lat="48.99889" lon="2.05917">
        <ele>29</ele>
        <time>2019-07-04T18:05:32Z</time>
      </trkpt>
      <trkpt lat="48.99887" lon="2.05903">
        <ele>30</ele>
        <time>2019-07-04T18:05:38Z</time>
      </trkpt>
      <trkpt lat="48.99884" lon="2.0589">
        <ele>30</ele>
        <time>2019-07-04T18:05:45Z</time>
      </trkpt>
      <trkpt lat="48.99881" lon="2.05877">
        <ele>30</ele>
        <time>2019-07-04T18:05:52Z</time>
      </trkpt>
      <trkpt lat="48.99879" lon="2.05862">
        <ele>30</ele>
        <time>2019-07-04T18:05:59Z</time>
      </trkpt>
      <trkpt lat="48.99878" lon="2.05846">
        <ele>31</ele>
        <time>2019-07-04T18:06:07Z</time>
      </trkpt>
      <trkpt lat="48.99877" lon="2.05831">
        <ele>34</ele>
        <time>2019-07-04T18:06:14Z</time>
      </trkpt>
      <trkpt lat="48.99875" lon="2.05817">
        <ele>34</ele>
        <time>2019-07-04T18:06:22Z</time>
      </trkpt>
      <trkpt lat="48.99872" lon="2.05802">
        <ele>35</ele>
        <time>2019-07-04T18:06:31Z</time>
      </trkpt>
      <trkpt lat="48.9987" lon="2.05788">
        <ele>35</ele>
        <time>2019-07-04T18:06:39Z</time>
      </trkpt>
      <trkpt lat="48.99869" lon="2.05774">
        <ele>36</ele>
        <time>2019-07-04T18:06:48Z</time>
      </trkpt>
      <trkpt lat="48.99866" lon="2.0576">
        <ele>36</ele>
        <time>2019-07-04T18:06:56Z</time>
      </trkpt>
      <trkpt lat="48.99864" lon="2.05746">
        <ele>40</ele>
        <time>2019-07-04T18:07:04Z</time>
      </trkpt>
      <trkpt lat="48.9986" lon="2.05731">
        <ele>40</ele>
        <time>2019-07-04T18:07:15Z</time>
      </trkpt>
      <trkpt lat="48.99855" lon="2.05718">
        <ele>41</ele>
        <time>2019-07-04T18:07:24Z</time>
      </trkpt>
      <trkpt lat="48.99855" lon="2.05704">
        <ele>42</ele>
        <time>2019-07-04T18:07:30Z</time>
      </trkpt>
      <trkpt lat="48.99851" lon="2.05691">
        <ele>42</ele>
        <time>2019-07-04T18:07:43Z</time>
      </trkpt>
      <trkpt lat="48.99848" lon="2.05678">
        <ele>43</ele>
        <time>2019-07-04T18:07:52Z</time>
      </trkpt>
      <trkpt lat="48.99844" lon="2.05664">
        <ele>46</ele>
        <time>2019-07-04T18:08:00Z</time>
      </trkpt>
      <trkpt lat="48.99838" lon="2.05652">
        <ele>47</ele>
        <time>2019-07-04T18:08:07Z</time>
      </trkpt>
      <trkpt lat="48.99832" lon="2.0564">
        <ele>47</ele>
        <time>2019-07-04T18:08:14Z</time>
      </trkpt>
      <trkpt lat="48.99823" lon="2.05632">
        <ele>48</ele>
        <time>2019-07-04T18:08:18Z</time>
      </trkpt>
      <trkpt lat="48.99819" lon="2.05619">
        <ele>48</ele>
        <time>2019-07-04T18:08:26Z</time>
      </trkpt>
      <trkpt lat="48.99812" lon="2.0561">
        <ele>49</ele>
        <time>2019-07-04T18:08:34Z</time>
      </trkpt>
      <trkpt lat="48.99804" lon="2.05601">
        <ele>49</ele>
        <time>2019-07-04T18:08:43Z</time>
      </trkpt>
      <trkpt lat="48.99802" lon="2.05587">
        <ele>49</ele>
        <time>2019-07-04T18:08:52Z</time>
      </trkpt>
      <trkpt lat="48.9981" lon="2.05579">
        <ele>53</ele>
        <time>2019-07-04T18:09:02Z</time>
      </trkpt>
      <trkpt lat="48.998" lon="2.05578">
        <ele>54</ele>
        <time>2019-07-04T18:09:19Z</time>
      </trkpt>
      <trkpt lat="48.9979" lon="2.05579">
        <ele>54</ele>
        <time>2019-07-04T18:09:30Z</time>
      </trkpt>
      <trkpt lat="48.99781" lon="2.05585">
        <ele>50</ele>
        <time>2019-07-04T18:09:38Z</time>
      </trkpt>
      <trkpt lat="48.99771" lon="2.05588">
        <ele>50</ele>
        <time>2019-07-04T18:09:47Z</time>
      </trkpt>
      <trkpt lat="48.99762" lon="2.0559">
        <ele>50</ele>
        <time>2019-07-04T18:09:53Z</time>
      </trkpt>
      <trkpt lat="48.99753" lon="2.0559">
        <ele>51</ele>
        <time>2019-07-04T18:10:02Z</time>
      </trkpt>
      <trkpt lat="48.99743" lon="2.0559">
        <ele>51</ele>
        <time>2019-07-04T18:10:08Z</time>
      </trkpt>
      <trkpt lat="48.99735" lon="2.05596">
        <ele>50</ele>
        <time>2019-07-04T18:10:15Z</time>
      </trkpt>
      <trkpt lat="48.99726" lon="2.05603">
        <ele>50</ele>
        <time>2019-07-04T18:10:20Z</time>
      </trkpt>
      <trkpt lat="48.99716" lon="2.05607">
        <ele>50</ele>
        <time>2019-07-04T18:10:28Z</time>
      </trkpt>
      <trkpt lat="48.99707" lon="2.05615">
        <ele>49</ele>
        <time>2019-07-04T18:10:36Z</time>
      </trkpt>
      <trkpt lat="48.99699" lon="2.05621">
        <ele>49</ele>
        <time>2019-07-04T18:10:45Z</time>
      </trkpt>
      <trkpt lat="48.99689" lon="2.05623">
        <ele>49</ele>
        <time>2019-07-04T18:11:01Z</time>
      </trkpt>
      <trkpt lat="48.9968" lon="2.05624">
        <ele>49</ele>
        <time>2019-07-04T18:11:12Z</time>
      </trkpt>
      <trkpt lat="48.99671" lon="2.0563">
        <ele>49</ele>
        <time>2019-07-04T18:11:22Z</time>
      </trkpt>
      <trkpt lat="48.99662" lon="2.05634">
        <ele>46</ele>
        <time>2019-07-04T18:11:33Z</time>
      </trkpt>
      <trkpt lat="48.99652" lon="2.05634">
        <ele>46</ele>
        <time>2019-07-04T18:11:42Z</time>
      </trkpt>
      <trkpt lat="48.99642" lon="2.05634">
        <ele>46</ele>
        <time>2019-07-04T18:11:50Z</time>
      </trkpt>
      <trkpt lat="48.99641" lon="2.05649">
        <ele>46</ele>
        <time>2019-07-04T18:12:00Z</time>
      </trkpt>
      <trkpt lat="48.99644" lon="2.05662">
        <ele>45</ele>
        <time>2019-07-04T18:12:06Z</time>
      </trkpt>
      <trkpt lat="48.99647" lon="2.05678">
        <ele>43</ele>
        <time>2019-07-04T18:12:13Z</time>
      </trkpt>
      <trkpt lat="48.9965" lon="2.05691">
        <ele>42</ele>
        <time>2019-07-04T18:12:20Z</time>
      </trkpt>
      <trkpt lat="48.99652" lon="2.05705">
        <ele>42</ele>
        <time>2019-07-04T18:12:30Z</time>
      </trkpt>
      <trkpt lat="48.99657" lon="2.05719">
        <ele>41</ele>
        <time>2019-07-04T18:12:38Z</time>
      </trkpt>
      <trkpt lat="48.99653" lon="2.05732">
        <ele>40</ele>
        <time>2019-07-04T18:12:49Z</time>
      </trkpt>
      <trkpt lat="48.99646" lon="2.05741">
        <ele>40</ele>
        <time>2019-07-04T18:12:59Z</time>
      </trkpt>
      <trkpt lat="48.99638" lon="2.05751">
        <ele>39</ele>
        <time>2019-07-04T18:13:06Z</time>
      </trkpt>
      <trkpt lat="48.9963" lon="2.0576">
        <ele>39</ele>
        <time>2019-07-04T18:13:14Z</time>
      </trkpt>
      <trkpt lat="48.99621" lon="2.05767">
        <ele>39</ele>
        <time>2019-07-04T18:13:21Z</time>
      </trkpt>
      <trkpt lat="48.99612" lon="2.05771">
        <ele>39</ele>
        <time>2019-07-04T18:13:29Z</time>
      </trkpt>
      <trkpt lat="48.99603" lon="2.05769">
        <ele>39</ele>
        <time>2019-07-04T18:13:37Z</time>
      </trkpt>
      <trkpt lat="48.99594" lon="2.05763">
        <ele>40</ele>
        <time>2019-07-04T18:13:46Z</time>
      </trkpt>
      <trkpt lat="48.99586" lon="2.05756">
        <ele>40</ele>
        <time>2019-07-04T18:13:55Z</time>
      </trkpt>
      <trkpt lat="48.99577" lon="2.05751">
        <ele>42</ele>
        <time>2019-07-04T18:14:03Z</time>
      </trkpt>
      <trkpt lat="48.99567" lon="2.05747">
        <ele>44</ele>
        <time>2019-07-04T18:14:14Z</time>
      </trkpt>
      <trkpt lat="48.99558" lon="2.05736">
        <ele>45</ele>
        <time>2019-07-04T18:14:20Z</time>
      </trkpt>
      <trkpt lat="48.99552" lon="2.05725">
        <ele>46</ele>
        <time>2019-07-04T18:14:26Z</time>
      </trkpt>
      <trkpt lat="48.99544" lon="2.05715">
        <ele>47</ele>
        <time>2019-07-04T18:14:38Z</time>
      </trkpt>
      <trkpt lat="48.99536" lon="2.05705">
        <ele>47</ele>
        <time>2019-07-04T18:14:48Z</time>
      </trkpt>
      <trkpt lat="48.99528" lon="2.05696">
        <ele>48</ele>
        <time>2019-07-04T18:14:59Z</time>
      </trkpt>
      <trkpt lat="48.9952" lon="2.05691">
        <ele>48</ele>
        <time>2019-07-04T18:15:10Z</time>
      </trkpt>
      <trkpt lat="48.99513" lon="2.05683">
        <ele>49</ele>
        <time>2019-07-04T18:15:19Z</time>
      </trkpt>
      <trkpt lat="48.99505" lon="2.05676">
        <ele>50</ele>
        <time>2019-07-04T18:15:26Z</time>
      </trkpt>
      <trkpt lat="48.99497" lon="2.0567">
        <ele>52</ele>
        <time>2019-07-04T18:15:33Z</time>
      </trkpt>
      <trkpt lat="48.99489" lon="2.0566">
        <ele>53</ele>
        <time>2019-07-04T18:15:46Z</time>
      </trkpt>
      <trkpt lat="48.99482" lon="2.05649">
        <ele>53</ele>
        <time>2019-07-04T18:15:55Z</time>
      </trkpt>
      <trkpt lat="48.99476" lon="2.05639">
        <ele>53</ele>
        <time>2019-07-04T18:16:03Z</time>
      </trkpt>
      <trkpt lat="48.99471" lon="2.05626">
        <ele>53</ele>
        <time>2019-07-04T18:16:11Z</time>
      </trkpt>
      <trkpt lat="48.99463" lon="2.05619">
        <ele>53</ele>
        <time>2019-07-04T18:16:18Z</time>
      </trkpt>
      <trkpt lat="48.99454" lon="2.05612">
        <ele>54</ele>
        <time>2019-07-04T18:16:26Z</time>
      </trkpt>
      <trkpt lat="48.99447" lon="2.05604">
        <ele>54</ele>
        <time>2019-07-04T18:16:32Z</time>
      </trkpt>
      <trkpt lat="48.99438" lon="2.056">
        <ele>55</ele>
        <time>2019-07-04T18:16:44Z</time>
      </trkpt>
      <trkpt lat="48.9943" lon="2.05591">
        <ele>56</ele>
        <time>2019-07-04T18:16:54Z</time>
      </trkpt>
      <trkpt lat="48.99421" lon="2.05584">
        <ele>58</ele>
        <time>2019-07-04T18:17:02Z</time>
      </trkpt>
      <trkpt lat="48.99413" lon="2.05578">
        <ele>59</ele>
        <time>2019-07-04T18:17:09Z</time>
      </trkpt>
      <trkpt lat="48.99404" lon="2.0557">
        <ele>60</ele>
        <time>2019-07-04T18:17:15Z</time>
      </trkpt>
      <trkpt lat="48.99394" lon="2.05562">
        <ele>60</ele>
        <time>2019-07-04T18:17:24Z</time>
      </trkpt>
      <trkpt lat="48.99387" lon="2.05554">
        <ele>61</ele>
        <time>2019-07-04T18:17:31Z</time>
      </trkpt>
      <trkpt lat="48.99379" lon="2.05547">
        <ele>61</ele>
        <time>2019-07-04T18:17:40Z</time>
      </trkpt>
      <trkpt lat="48.99372" lon="2.05538">
        <ele>61</ele>
        <time>2019-07-04T18:17:49Z</time>
      </trkpt>
      <trkpt lat="48.99363" lon="2.05529">
        <ele>61</ele>
        <time>2019-07-04T18:17:59Z</time>
      </trkpt>
      <trkpt lat="48.99356" lon="2.05519">
        <ele>62</ele>
        <time>2019-07-04T18:18:06Z</time>
      </trkpt>
      <trkpt lat="48.99347" lon="2.05511">
        <ele>62</ele>
        <time>2019-07-04T18:18:12Z</time>
      </trkpt>
      <trkpt lat="48.9934" lon="2.05502">
        <ele>63</ele>
        <time>2019-07-04T18:18:18Z</time>
      </trkpt>
      <trkpt lat="48.99333" lon="2.05493">
        <ele>65</ele>
        <time>2019-07-04T18:18:25Z</time>
      </trkpt>
      <trkpt lat="48.99324" lon="2.05483">
        <ele>65</ele>
        <time>2019-07-04T18:18:36Z</time>
      </trkpt>
      <trkpt lat="48.99316" lon="2.05474">
        <ele>66</ele>
        <time>2019-07-04T18:18:45Z</time>
      </trkpt>
      <trkpt lat="48.99309" lon="2.05466">
        <ele>66</ele>
        <time>2019-07-04T18:18:54Z</time>
      </trkpt>
      <trkpt lat="48.99302" lon="2.05457">
        <ele>66</ele>
        <time>2019-07-04T18:19:01Z</time>
      </trkpt>
      <trkpt lat="48.99294" lon="2.05448">
        <ele>66</ele>
        <time>2019-07-04T18:19:08Z</time>
      </trkpt>
      <trkpt lat="48.99286" lon="2.05441">
        <ele>66</ele>
        <time>2019-07-04T18:19:15Z</time>
      </trkpt>
      <trkpt lat="48.99279" lon="2.0543">
        <ele>67</ele>
        <time>2019-07-04T18:19:20Z</time>
      </trkpt>
      <trkpt lat="48.99272" lon="2.05419">
        <ele>67</ele>
        <time>2019-07-04T18:19:27Z</time>
      </trkpt>
      <trkpt lat="48.99263" lon="2.05412">
        <ele>68</ele>
        <time>2019-07-04T18:19:37Z</time>
      </trkpt>
      <trkpt lat="48.99261" lon="2.05398">
        <ele>68</ele>
        <time>2019-07-04T18:19:43Z</time>
      </trkpt>
      <trkpt lat="48.99257" lon="2.05386">
        <ele>68</ele>
        <time>2019-07-04T18:19:51Z</time>
      </trkpt>
      <trkpt lat="48.99255" lon="2.05371">
        <ele>68</ele>
        <time>2019-07-04T18:19:58Z</time>
      </trkpt>
      <trkpt lat="48.99253" lon="2.05357">
        <ele>68</ele>
        <time>2019-07-04T18:20:06Z</time>
      </trkpt>
      <trkpt lat="48.99248" lon="2.05343">
        <ele>71</ele>
        <time>2019-07-04T18:20:14Z</time>
      </trkpt>
      <trkpt lat="48.99247" lon="2.05329">
        <ele>71</ele>
        <time>2019-07-04T18:20:22Z</time>
      </trkpt>
      <trkpt lat="48.99246" lon="2.05314">
        <ele>71</ele>
        <time>2019-07-04T18:20:30Z</time>
      </trkpt>
      <trkpt lat="48.99242" lon="2.05302">
        <ele>72</ele>
        <time>2019-07-04T18:20:37Z</time>
      </trkpt>
      <trkpt lat="48.99238" lon="2.05288">
        <ele>72</ele>
        <time>2019-07-04T18:20:45Z</time>
      </trkpt>
      <trkpt lat="48.99234" lon="2.05275">
        <ele>72</ele>
        <time>2019-07-04T18:20:55Z</time>
      </trkpt>
      <trkpt lat="48.99229" lon="2.05262">
        <ele>72</ele>
        <time>2019-07-04T18:21:02Z</time>
      </trkpt>
      <trkpt lat="48.99225" lon="2.05249">
        <ele>72</ele>
        <time>2019-07-04T18:21:08Z</time>
      </trkpt>
      <trkpt lat="48.9922" lon="2.05236">
        <ele>73</ele>
        <time>2019-07-04T18:21:17Z</time>
      </trkpt>
      <trkpt lat="48.99216" lon="2.05221">
        <ele>73</ele>
        <time>2019-07-04T18:21:23Z</time>
      </trkpt>
      <trkpt lat="48.99212" lon="2.05209">
        <ele>73</ele>
        <time>2019-07-04T18:21:30Z</time>
      </trkpt>
      <trkpt lat="48.99205" lon="2.05197">
        <ele>74</ele>
        <time>2019-07-04T18:21:37Z</time>
      </trkpt>
      <trkpt lat="48.99201" lon="2.05184">
        <ele>74</ele>
        <time>2019-07-04T18:21:47Z</time>
      </trkpt>
      <trkpt lat="48.99195" lon="2.05172">
        <ele>74</ele>
        <time>2019-07-04T18:21:55Z</time>
      </trkpt>
      <trkpt lat="48.99191" lon="2.05159">
        <ele>75</ele>
        <time>2019-07-04T18:22:02Z</time>
      </trkpt>
      <trkpt lat="48.99187" lon="2.05146">
        <ele>76</ele>
        <time>2019-07-04T18:22:08Z</time>
      </trkpt>
      <trkpt lat="48.99182" lon="2.05133">
        <ele>76</ele>
        <time>2019-07-04T18:22:17Z</time>
      </trkpt>
      <trkpt lat="48.99177" lon="2.05119">
        <ele>76</ele>
        <time>2019-07-04T18:22:27Z</time>
      </trkpt>
      <trkpt lat="48.99173" lon="2.05105">
        <ele>76</ele>
        <time>2019-07-04T18:22:35Z</time>
      </trkpt>
      <trkpt lat="48.99169" lon="2.05092">
        <ele>77</ele>
        <time>2019-07-04T18:22:43Z</time>
      </trkpt>
      <trkpt lat="48.99165" lon="2.05079">
        <ele>79</ele>
        <time>2019-07-04T18:22:51Z</time>
      </trkpt>
      <trkpt lat="48.99161" lon="2.05066">
        <ele>80</ele>
        <time>2019-07-04T18:22:58Z</time>
      </trkpt>
      <trkpt lat="48.99158" lon="2.05052">
        <ele>80</ele>
        <time>2019-07-04T18:23:07Z</time>
      </trkpt>
      <trkpt lat="48.99154" lon="2.0504">
        <ele>81</ele>
        <time>2019-07-04T18:23:15Z</time>
      </trkpt>
      <trkpt lat="48.99148" lon="2.05026">
        <ele>81</ele>
        <time>2019-07-04T18:23:24Z</time>
      </trkpt>
      <trkpt lat="48.99143" lon="2.05014">
        <ele>81</ele>
        <time>2019-07-04T18:23:32Z</time>
      </trkpt>
      <trkpt lat="48.9914" lon="2.04999">
        <ele>83</ele>
        <time>2019-07-04T18:23:40Z</time>
      </trkpt>
      <trkpt lat="48.99136" lon="2.04986">
        <ele>83</ele>
        <time>2019-07-04T18:23:49Z</time>
      </trkpt>
      <trkpt lat="48.99133" lon="2.04971">
        <ele>84</ele>
        <time>2019-07-04T18:23:56Z</time>
      </trkpt>
      <trkpt lat="48.99131" lon="2.04957">
        <ele>84</ele>
        <time>2019-07-04T18:24:02Z</time>
      </trkpt>
      <trkpt lat="48.99129" lon="2.04943">
        <ele>84</ele>
        <time>2019-07-04T18:24:10Z</time>
      </trkpt>
      <trkpt lat="48.99125" lon="2.04929">
        <ele>85</ele>
        <time>2019-07-04T18:24:18Z</time>
      </trkpt>
      <trkpt lat="48.99123" lon="2.04915">
        <ele>87</ele>
        <time>2019-07-04T18:24:28Z</time>
      </trkpt>
      <trkpt lat="48.9912" lon="2.04901">
        <ele>88</ele>
        <time>2019-07-04T18:24:37Z</time>
      </trkpt>
      <trkpt lat="48.99117" lon="2.04888">
        <ele>88</ele>
        <time>2019-07-04T18:24:43Z</time>
      </trkpt>
      <trkpt lat="48.99114" lon="2.04873">
        <ele>89</ele>
        <time>2019-07-04T18:24:50Z</time>
      </trkpt>
      <trkpt lat="48.99112" lon="2.04859">
        <ele>89</ele>
        <time>2019-07-04T18:25:00Z</time>
      </trkpt>
      <trkpt lat="48.9911" lon="2.04845">
        <ele>89</ele>
        <time>2019-07-04T18:25:06Z</time>
      </trkpt>
      <trkpt lat="48.99108" lon="2.04832">
        <ele>92</ele>
        <time>2019-07-04T18:25:15Z</time>
      </trkpt>
      <trkpt lat="48.99106" lon="2.04816">
        <ele>92</ele>
        <time>2019-07-04T18:25:23Z</time>
      </trkpt>
      <trkpt lat="48.99104" lon="2.04802">
        <ele>92</ele>
        <time>2019-07-04T18:25:31Z</time>
      </trkpt>
      <trkpt lat="48.991" lon="2.04788">
        <ele>92</ele>
        <time>2019-07-04T18:25:40Z</time>
      </trkpt>
      <trkpt lat="48.99091" lon="2.04783">
        <ele>93</ele>
        <time>2019-07-04T18:25:49Z</time>
      </trkpt>
      <trkpt lat="48.99084" lon="2.04773">
        <ele>93</ele>
        <time>2019-07-04T18:25:58Z</time>
      </trkpt>
      <trkpt lat="48.99078" lon="2.04761">
        <ele>95</ele>
        <time>2019-07-04T18:26:04Z</time>
      </trkpt>
      <trkpt lat="48.99073" lon="2.04748">
        <ele>96</ele>
        <time>2019-07-04T18:26:11Z</time>
      </trkpt>
      <trkpt lat="48.99069" lon="2.04735">
        <ele>96</ele>
        <time>2019-07-04T18:26:19Z</time>
      </trkpt>
      <trkpt lat="48.99067" lon="2.0472">
        <ele>96</ele>
        <time>2019-07-04T18:26:26Z</time>
      </trkpt>
      <trkpt lat="48.99065" lon="2.04707">
        <ele>97</ele>
        <time>2019-07-04T18:26:32Z</time>
      </trkpt>
      <trkpt lat="48.99056" lon="2.04709">
        <ele>97</ele>
        <time>2019-07-04T18:28:49Z</time>
      </trkpt>
      <trkpt lat="48.99047" lon="2.04718">
        <ele>97</ele>
        <time>2019-07-04T18:28:54Z</time>
      </trkpt>
      <trkpt lat="48.99039" lon="2.04723">
        <ele>97</ele>
        <time>2019-07-04T18:29:02Z</time>
      </trkpt>
      <trkpt lat="48.99029" lon="2.04724">
        <ele>97</ele>
        <time>2019-07-04T18:29:15Z</time>
      </trkpt>
      <trkpt lat="48.9902" lon="2.04729">
        <ele>97</ele>
        <time>2019-07-04T18:29:22Z</time>
      </trkpt>
      <trkpt lat="48.99011" lon="2.0473">
        <ele>97</ele>
        <time>2019-07-04T18:29:30Z</time>
      </trkpt>
      <trkpt lat="48.99002" lon="2.04736">
        <ele>98</ele>
        <time>2019-07-04T18:29:37Z</time>
      </trkpt>
      <trkpt lat="48.98993" lon="2.04742">
        <ele>99</ele>
        <time>2019-07-04T18:29:45Z</time>
      </trkpt>
      <trkpt lat="48.98983" lon="2.04745">
        <ele>99</ele>
        <time>2019-07-04T18:29:53Z</time>
      </trkpt>
      <trkpt lat="48.98974" lon="2.04748">
        <ele>100</ele>
        <time>2019-07-04T18:30:01Z</time>
      </trkpt>
      <trkpt lat="48.98964" lon="2.04751">
        <ele>99</ele>
        <time>2019-07-04T18:30:08Z</time>
      </trkpt>
      <trkpt lat="48.98957" lon="2.04759">
        <ele>99</ele>
        <time>2019-07-04T18:30:17Z</time>
      </trkpt>
      <trkpt lat="48.98948" lon="2.04766">
        <ele>100</ele>
        <time>2019-07-04T18:30:26Z</time>
      </trkpt>
      <trkpt lat="48.98939" lon="2.04771">
        <ele>100</ele>
        <time>2019-07-04T18:30:32Z</time>
      </trkpt>
      <trkpt lat="48.9893" lon="2.04776">
        <ele>100</ele>
        <time>2019-07-04T18:30:39Z</time>
      </trkpt>
      <trkpt lat="48.98921" lon="2.0478">
        <ele>100</ele>
        <time>2019-07-04T18:30:46Z</time>
      </trkpt>
      <trkpt lat="48.98911" lon="2.04785">
        <ele>102</ele>
        <time>2019-07-04T18:30:53Z</time>
      </trkpt>
      <trkpt lat="48.98902" lon="2.04787">
        <ele>102</ele>
        <time>2019-07-04T18:31:01Z</time>
      </trkpt>
      <trkpt lat="48.98894" lon="2.04796">
        <ele>102</ele>
        <time>2019-07-04T18:31:08Z</time>
      </trkpt>
      <trkpt lat="48.98885" lon="2.04801">
        <ele>102</ele>
        <time>2019-07-04T18:31:17Z</time>
      </trkpt>
      <trkpt lat="48.98875" lon="2.04803">
        <ele>103</ele>
        <time>2019-07-04T18:31:23Z</time>
      </trkpt>
      <trkpt lat="48.98866" lon="2.04808">
        <ele>103</ele>
        <time>2019-07-04T18:31:31Z</time>
      </trkpt>
      <trkpt lat="48.98857" lon="2.04815">
        <ele>103</ele>
        <time>2019-07-04T18:31:42Z</time>
      </trkpt>
      <trkpt lat="48.98847" lon="2.04813">
        <ele>103</ele>
        <time>2019-07-04T18:31:50Z</time>
      </trkpt>
      <trkpt lat="48.98837" lon="2.04815">
        <ele>103</ele>
        <time>2019-07-04T18:31:56Z</time>
      </trkpt>
      <trkpt lat="48.98828" lon="2.04821">
        <ele>104</ele>
        <time>2019-07-04T18:32:05Z</time>
      </trkpt>
      <trkpt lat="48.9882" lon="2.04828">
        <ele>104</ele>
        <time>2019-07-04T18:32:13Z</time>
      </trkpt>
      <trkpt lat="48.98812" lon="2.04837">
        <ele>102</ele>
        <time>2019-07-04T18:32:22Z</time>
      </trkpt>
      <trkpt lat="48.98808" lon="2.04851">
        <ele>102</ele>
        <time>2019-07-04T18:32:30Z</time>
      </trkpt>
      <trkpt lat="48.98801" lon="2.04859">
        <ele>102</ele>
        <time>2019-07-04T18:32:38Z</time>
      </trkpt>
      <trkpt lat="48.98792" lon="2.04863">
        <ele>102</ele>
        <time>2019-07-04T18:32:47Z</time>
      </trkpt>
      <trkpt lat="48.98783" lon="2.04872">
        <ele>102</ele>
        <time>2019-07-04T18:32:56Z</time>
      </trkpt>
      <trkpt lat="48.98774" lon="2.04879">
        <ele>102</ele>
        <time>2019-07-04T18:33:04Z</time>
      </trkpt>
      <trkpt lat="48.98767" lon="2.04888">
        <ele>102</ele>
        <time>2019-07-04T18:33:12Z</time>
      </trkpt>
      <trkpt lat="48.9876" lon="2.04901">
        <ele>102</ele>
        <time>2019-07-04T18:33:19Z</time>
      </trkpt>
      <trkpt lat="48.98754" lon="2.04912">
        <ele>101</ele>
        <time>2019-07-04T18:33:25Z</time>
      </trkpt>
      <trkpt lat="48.98748" lon="2.04925">
        <ele>101</ele>
        <time>2019-07-04T18:33:36Z</time>
      </trkpt>
      <trkpt lat="48.98742" lon="2.04936">
        <ele>100</ele>
        <time>2019-07-04T18:33:47Z</time>
      </trkpt>
      <trkpt lat="48.98734" lon="2.04943">
        <ele>100</ele>
        <time>2019-07-04T18:33:54Z</time>
      </trkpt>
      <trkpt lat="48.98728" lon="2.04954">
        <ele>100</ele>
        <time>2019-07-04T18:34:01Z</time>
      </trkpt>
      <trkpt lat="48.98721" lon="2.04964">
        <ele>99</ele>
        <time>2019-07-04T18:34:09Z</time>
      </trkpt>
      <trkpt lat="48.98713" lon="2.04976">
        <ele>99</ele>
        <time>2019-07-04T18:34:16Z</time>
      </trkpt>
      <trkpt lat="48.98707" lon="2.04985">
        <ele>99</ele>
        <time>2019-07-04T18:34:22Z</time>
      </trkpt>
      <trkpt lat="48.98699" lon="2.04994">
        <ele>99</ele>
        <time>2019-07-04T18:34:28Z</time>
      </trkpt>
      <trkpt lat="48.98691" lon="2.05002">
        <ele>96</ele>
        <time>2019-07-04T18:34:36Z</time>
      </trkpt>
      <trkpt lat="48.98683" lon="2.05011">
        <ele>97</ele>
        <time>2019-07-04T18:34:43Z</time>
      </trkpt>
      <trkpt lat="48.98676" lon="2.0502">
        <ele>96</ele>
        <time>2019-07-04T18:34:50Z</time>
      </trkpt>
      <trkpt lat="48.9867" lon="2.0503">
        <ele>96</ele>
        <time>2019-07-04T18:34:56Z</time>
      </trkpt>
      <trkpt lat="48.98662" lon="2.0504">
        <ele>96</ele>
        <time>2019-07-04T18:35:05Z</time>
      </trkpt>
      <trkpt lat="48.98654" lon="2.05049">
        <ele>96</ele>
        <time>2019-07-04T18:35:11Z</time>
      </trkpt>
      <trkpt lat="48.98647" lon="2.05058">
        <ele>96</ele>
        <time>2019-07-04T18:35:18Z</time>
      </trkpt>
      <trkpt lat="48.98641" lon="2.05069">
        <ele>95</ele>
        <time>2019-07-04T18:35:26Z</time>
      </trkpt>
      <trkpt lat="48.98634" lon="2.05078">
        <ele>95</ele>
        <time>2019-07-04T18:35:33Z</time>
      </trkpt>
      <trkpt lat="48.98628" lon="2.05089">
        <ele>93</ele>
        <time>2019-07-04T18:35:41Z</time>
      </trkpt>
      <trkpt lat="48.98622" lon="2.05099">
        <ele>93</ele>
        <time>2019-07-04T18:36:18Z</time>
      </trkpt>
      <trkpt lat="48.98613" lon="2.05105">
        <ele>93</ele>
        <time>2019-07-04T18:36:39Z</time>
      </trkpt>
      <trkpt lat="48.98605" lon="2.05113">
        <ele>93</ele>
        <time>2019-07-04T18:36:45Z</time>
      </trkpt>
      <trkpt lat="48.98598" lon="2.05123">
        <ele>93</ele>
        <time>2019-07-04T18:36:53Z</time>
      </trkpt>
      <trkpt lat="48.98592" lon="2.05134">
        <ele>93</ele>
        <time>2019-07-04T18:37:00Z</time>
      </trkpt>
      <trkpt lat="48.98585" lon="2.05146">
        <ele>93</ele>
        <time>2019-07-04T18:37:07Z</time>
      </trkpt>
      <trkpt lat="48.98579" lon="2.05157">
        <ele>94</ele>
        <time>2019-07-04T18:37:15Z</time>
      </trkpt>
      <trkpt lat="48.98573" lon="2.05168">
        <ele>93</ele>
        <time>2019-07-04T18:37:23Z</time>
      </trkpt>
      <trkpt lat="48.98567" lon="2.0518">
        <ele>93</ele>
        <time>2019-07-04T18:37:29Z</time>
      </trkpt>
      <trkpt lat="48.98561" lon="2.05191">
        <ele>93</ele>
        <time>2019-07-04T18:37:35Z</time>
      </trkpt>
      <trkpt lat="48.98555" lon="2.05202">
        <ele>93</ele>
        <time>2019-07-04T18:37:42Z</time>
      </trkpt>
      <trkpt lat="48.98547" lon="2.05211">
        <ele>93</ele>
        <time>2019-07-04T18:37:49Z</time>
      </trkpt>
      <trkpt lat="48.98539" lon="2.05219">
        <ele>93</ele>
        <time>2019-07-04T18:37:57Z</time>
      </trkpt>
      <trkpt lat="48.98532" lon="2.05209">
        <ele>93</ele>
        <time>2019-07-04T18:38:14Z</time>
      </trkpt>
      <trkpt lat="48.98528" lon="2.05196">
        <ele>94</ele>
        <time>2019-07-04T18:38:23Z</time>
      </trkpt>
      <trkpt lat="48.98527" lon="2.0518">
        <ele>95</ele>
        <time>2019-07-04T18:38:31Z</time>
      </trkpt>
      <trkpt lat="48.98527" lon="2.05165">
        <ele>98</ele>
        <time>2019-07-04T18:38:38Z</time>
      </trkpt>
      <trkpt lat="48.98526" lon="2.05151">
        <ele>98</ele>
        <time>2019-07-04T18:38:45Z</time>
      </trkpt>
      <trkpt lat="48.98523" lon="2.05137">
        <ele>98</ele>
        <time>2019-07-04T18:38:54Z</time>
      </trkpt>
      <trkpt lat="48.98519" lon="2.05122">
        <ele>98</ele>
        <time>2019-07-04T18:39:03Z</time>
      </trkpt>
      <trkpt lat="48.98514" lon="2.05108">
        <ele>99</ele>
        <time>2019-07-04T18:39:10Z</time>
      </trkpt>
      <trkpt lat="48.98513" lon="2.05094">
        <ele>100</ele>
        <time>2019-07-04T18:39:17Z</time>
      </trkpt>
      <trkpt lat="48.98515" lon="2.05079">
        <ele>101</ele>
        <time>2019-07-04T18:39:25Z</time>
      </trkpt>
      <trkpt lat="48.98517" lon="2.05065">
        <ele>100</ele>
        <time>2019-07-04T18:39:32Z</time>
      </trkpt>
      <trkpt lat="48.98516" lon="2.05051">
        <ele>100</ele>
        <time>2019-07-04T18:39:39Z</time>
      </trkpt>
      <trkpt lat="48.98516" lon="2.05036">
        <ele>101</ele>
        <time>2019-07-04T18:39:48Z</time>
      </trkpt>
      <trkpt lat="48.98514" lon="2.0502">
        <ele>101</ele>
        <time>2019-07-04T18:39:58Z</time>
      </trkpt>
      <trkpt lat="48.98512" lon="2.05006">
        <ele>102</ele>
        <time>2019-07-04T18:40:05Z</time>
      </trkpt>
      <trkpt lat="48.9851" lon="2.04992">
        <ele>103</ele>
        <time>2019-07-04T18:40:12Z</time>
      </trkpt>
      <trkpt lat="48.98499" lon="2.04992">
        <ele>106</ele>
        <time>2019-07-04T18:40:26Z</time>
      </trkpt>
      <trkpt lat="48.98492" lon="2.04999">
        <ele>106</ele>
        <time>2019-07-04T18:40:34Z</time>
      </trkpt>
      <trkpt lat="48.98482" lon="2.05001">
        <ele>105</ele>
        <time>2019-07-04T18:40:41Z</time>
      </trkpt>
      <trkpt lat="48.98473" lon="2.05003">
        <ele>106</ele>
        <time>2019-07-04T18:40:48Z</time>
      </trkpt>
      <trkpt lat="48.98463" lon="2.05005">
        <ele>106</ele>
        <time>2019-07-04T18:40:54Z</time>
      </trkpt>
      <trkpt lat="48.98453" lon="2.05005">
        <ele>107</ele>
        <time>2019-07-04T18:41:04Z</time>
      </trkpt>
      <trkpt lat="48.98443" lon="2.05007">
        <ele>108</ele>
        <time>2019-07-04T18:41:13Z</time>
      </trkpt>
      <trkpt lat="48.98434" lon="2.05008">
        <ele>109</ele>
        <time>2019-07-04T18:41:22Z</time>
      </trkpt>
      <trkpt lat="48.98425" lon="2.05006">
        <ele>110</ele>
        <time>2019-07-04T18:41:29Z</time>
      </trkpt>
      <trkpt lat="48.98415" lon="2.05007">
        <ele>111</ele>
        <time>2019-07-04T18:41:37Z</time>
      </trkpt>
      <trkpt lat="48.98406" lon="2.05004">
        <ele>111</ele>
        <time>2019-07-04T18:41:48Z</time>
      </trkpt>
      <trkpt lat="48.98397" lon="2.04998">
        <ele>113</ele>
        <time>2019-07-04T18:41:56Z</time>
      </trkpt>
      <trkpt lat="48.98387" lon="2.04991">
        <ele>114</ele>
        <time>2019-07-04T18:42:03Z</time>
      </trkpt>
      <trkpt lat="48.98377" lon="2.04992">
        <ele>114</ele>
        <time>2019-07-04T18:42:10Z</time>
      </trkpt>
      <trkpt lat="48.98368" lon="2.04993">
        <ele>114</ele>
        <time>2019-07-04T18:42:17Z</time>
      </trkpt>
      <trkpt lat="48.98359" lon="2.04992">
        <ele>114</ele>
        <time>2019-07-04T18:42:23Z</time>
      </trkpt>
      <trkpt lat="48.98349" lon="2.04991">
        <ele>114</ele>
        <time>2019-07-04T18:42:33Z</time>
      </trkpt>
      <trkpt lat="48.9834" lon="2.04987">
        <ele>114</ele>
        <time>2019-07-04T18:42:40Z</time>
      </trkpt>
      <trkpt lat="48.9833" lon="2.04982">
        <ele>114</ele>
        <time>2019-07-04T18:42:46Z</time>
      </trkpt>
      <trkpt lat="48.98322" lon="2.04978">
        <ele>114</ele>
        <time>2019-07-04T18:42:53Z</time>
      </trkpt>
      <trkpt lat="48.98312" lon="2.04977">
        <ele>114</ele>
        <time>2019-07-04T18:43:01Z</time>
      </trkpt>
      <trkpt lat="48.98303" lon="2.04974">
        <ele>114</ele>
        <time>2019-07-04T18:43:09Z</time>
      </trkpt>
      <trkpt lat="48.98293" lon="2.04972">
        <ele>113</ele>
        <time>2019-07-04T18:43:17Z</time>
      </trkpt>
      <trkpt lat="48.98284" lon="2.04972">
        <ele>113</ele>
        <time>2019-07-04T18:43:24Z</time>
      </trkpt>
      <trkpt lat="48.98274" lon="2.04967">
        <ele>113</ele>
        <time>2019-07-04T18:43:34Z</time>
      </trkpt>
      <trkpt lat="48.98265" lon="2.04969">
        <ele>113</ele>
        <time>2019-07-04T18:43:48Z</time>
      </trkpt>
      <trkpt lat="48.98259" lon="2.0498">
        <ele>113</ele>
        <time>2019-07-04T18:43:57Z</time>
      </trkpt>
      <trkpt lat="48.98252" lon="2.04991">
        <ele>112</ele>
        <time>2019-07-04T18:44:08Z</time>
      </trkpt>
      <trkpt lat="48.98245" lon="2.05002">
        <ele>110</ele>
        <time>2019-07-04T18:44:18Z</time>
      </trkpt>
      <trkpt lat="48.98238" lon="2.05012">
        <ele>108</ele>
        <time>2019-07-04T18:44:26Z</time>
      </trkpt>
      <trkpt lat="48.98234" lon="2.05026">
        <ele>106</ele>
        <time>2019-07-04T18:44:36Z</time>
      </trkpt>
      <trkpt lat="48.98229" lon="2.05039">
        <ele>105</ele>
        <time>2019-07-04T18:44:44Z</time>
      </trkpt>
      <trkpt lat="48.98224" lon="2.05055">
        <ele>104</ele>
        <time>2019-07-04T18:44:57Z</time>
      </trkpt>
      <trkpt lat="48.98221" lon="2.05068">
        <ele>104</ele>
        <time>2019-07-04T18:45:29Z</time>
      </trkpt>
      <trkpt lat="48.98217" lon="2.05081">
        <ele>103</ele>
        <time>2019-07-04T18:45:38Z</time>
      </trkpt>
      <trkpt lat="48.98213" lon="2.05096">
        <ele>100</ele>
        <time>2019-07-04T18:45:47Z</time>
      </trkpt>
      <trkpt lat="48.9821" lon="2.05109">
        <ele>99</ele>
        <time>2019-07-04T18:45:57Z</time>
      </trkpt>
      <trkpt lat="48.98208" lon="2.05123">
        <ele>99</ele>
        <time>2019-07-04T18:46:06Z</time>
      </trkpt>
      <trkpt lat="48.98203" lon="2.05136">
        <ele>98</ele>
        <time>2019-07-04T18:46:16Z</time>
      </trkpt>
      <trkpt lat="48.98201" lon="2.0515">
        <ele>98</ele>
        <time>2019-07-04T18:47:02Z</time>
      </trkpt>
      <trkpt lat="48.98198" lon="2.05162">
        <ele>97</ele>
        <time>2019-07-04T18:47:12Z</time>
      </trkpt>
      <trkpt lat="48.98193" lon="2.05174">
        <ele>94</ele>
        <time>2019-07-04T18:47:19Z</time>
      </trkpt>
      <trkpt lat="48.98189" lon="2.05189">
        <ele>94</ele>
        <time>2019-07-04T18:47:32Z</time>
      </trkpt>
      <trkpt lat="48.98185" lon="2.05202">
        <ele>94</ele>
        <time>2019-07-04T18:47:39Z</time>
      </trkpt>
      <trkpt lat="48.9818" lon="2.05214">
        <ele>94</ele>
        <time>2019-07-04T18:47:45Z</time>
      </trkpt>
      <trkpt lat="48.98175" lon="2.05228">
        <ele>93</ele>
        <time>2019-07-04T18:47:52Z</time>
      </trkpt>
      <trkpt lat="48.98171" lon="2.05242">
        <ele>93</ele>
        <time>2019-07-04T18:47:59Z</time>
      </trkpt>
      <trkpt lat="48.98175" lon="2.05256">
        <ele>91</ele>
        <time>2019-07-04T18:48:16Z</time>
      </trkpt>
      <trkpt lat="48.98183" lon="2.05264">
        <ele>91</ele>
        <time>2019-07-04T18:48:22Z</time>
      </trkpt>
      <trkpt lat="48.98191" lon="2.05272">
        <ele>90</ele>
        <time>2019-07-04T18:48:30Z</time>
      </trkpt>
      <trkpt lat="48.98198" lon="2.0528">
        <ele>90</ele>
        <time>2019-07-04T18:48:38Z</time>
      </trkpt>
      <trkpt lat="48.98202" lon="2.05293">
        <ele>89</ele>
        <time>2019-07-04T18:48:49Z</time>
      </trkpt>
      <trkpt lat="48.98201" lon="2.05308">
        <ele>89</ele>
        <time>2019-07-04T18:48:59Z</time>
      </trkpt>
      <trkpt lat="48.98198" lon="2.05321">
        <ele>88</ele>
        <time>2019-07-04T18:49:08Z</time>
      </trkpt>
      <trkpt lat="48.98196" lon="2.05335">
        <ele>84</ele>
        <time>2019-07-04T18:49:18Z</time>
      </trkpt>
      <trkpt lat="48.98192" lon="2.05348">
        <ele>84</ele>
        <time>2019-07-04T18:49:26Z</time>
      </trkpt>
      <trkpt lat="48.98191" lon="2.05364">
        <ele>84</ele>
        <time>2019-07-04T18:49:35Z</time>
      </trkpt>
      <trkpt lat="48.98189" lon="2.05377">
        <ele>83</ele>
        <time>2019-07-04T18:49:43Z</time>
      </trkpt>
      <trkpt lat="48.98186" lon="2.05391">
        <ele>82</ele>
        <time>2019-07-04T18:49:51Z</time>
      </trkpt>
      <trkpt lat="48.98183" lon="2.05403">
        <ele>82</ele>
        <time>2019-07-04T18:49:59Z</time>
      </trkpt>
      <trkpt lat="48.9818" lon="2.05417">
        <ele>79</ele>
        <time>2019-07-04T18:50:07Z</time>
      </trkpt>
      <trkpt lat="48.98176" lon="2.0543">
        <ele>79</ele>
        <time>2019-07-04T18:50:15Z</time>
      </trkpt>
      <trkpt lat="48.98173" lon="2.05444">
        <ele>78</ele>
        <time>2019-07-04T18:50:24Z</time>
      </trkpt>
      <trkpt lat="48.98169" lon="2.05458">
        <ele>77</ele>
        <time>2019-07-04T18:50:33Z</time>
      </trkpt>
      <trkpt lat="48.98175" lon="2.05468">
        <ele>77</ele>
        <time>2019-07-04T18:50:45Z</time>
      </trkpt>
      <trkpt lat="48.98185" lon="2.05468">
        <ele>77</ele>
        <time>2019-07-04T18:50:58Z</time>
      </trkpt>
      <trkpt lat="48.98195" lon="2.05474">
        <ele>77</ele>
        <time>2019-07-04T18:51:06Z</time>
      </trkpt>
      <trkpt lat="48.98204" lon="2.05478">
        <ele>77</ele>
        <time>2019-07-04T18:51:12Z</time>
      </trkpt>
      <trkpt lat="48.98213" lon="2.05482">
        <ele>77</ele>
        <time>2019-07-04T18:51:18Z</time>
      </trkpt>
      <trkpt lat="48.98222" lon="2.05484">
        <ele>76</ele>
        <time>2019-07-04T18:51:25Z</time>
      </trkpt>
      <trkpt lat="48.98232" lon="2.05486">
        <ele>76</ele>
        <time>2019-07-04T18:51:33Z</time>
      </trkpt>
      <trkpt lat="48.98242" lon="2.05487">
        <ele>76</ele>
        <time>2019-07-04T18:51:42Z</time>
      </trkpt>
      <trkpt lat="48.98251" lon="2.05492">
        <ele>76</ele>
        <time>2019-07-04T18:51:52Z</time>
      </trkpt>
      <trkpt lat="48.9826" lon="2.05495">
        <ele>76</ele>
        <time>2019-07-04T18:52:00Z</time>
      </trkpt>
      <trkpt lat="48.98269" lon="2.05499">
        <ele>77</ele>
        <time>2019-07-04T18:52:09Z</time>
      </trkpt>
      <trkpt lat="48.98278" lon="2.05502">
        <ele>74</ele>
        <time>2019-07-04T18:52:16Z</time>
      </trkpt>
      <trkpt lat="48.98288" lon="2.05507">
        <ele>74</ele>
        <time>2019-07-04T18:52:24Z</time>
      </trkpt>
      <trkpt lat="48.98297" lon="2.05508">
        <ele>74</ele>
        <time>2019-07-04T18:52:32Z</time>
      </trkpt>
      <trkpt lat="48.98306" lon="2.05511">
        <ele>74</ele>
        <time>2019-07-04T18:52:39Z</time>
      </trkpt>
      <trkpt lat="48.98306" lon="2.05526">
        <ele>74</ele>
        <time>2019-07-04T18:52:47Z</time>
      </trkpt>
      <trkpt lat="48.98303" lon="2.05539">
        <ele>73</ele>
        <time>2019-07-04T18:52:55Z</time>
      </trkpt>
      <trkpt lat="48.983" lon="2.05553">
        <ele>73</ele>
        <time>2019-07-04T18:53:02Z</time>
      </trkpt>
      <trkpt lat="48.98298" lon="2.05567">
        <ele>73</ele>
        <time>2019-07-04T18:53:08Z</time>
      </trkpt>
      <trkpt lat="48.98296" lon="2.05581">
        <ele>72</ele>
        <time>2019-07-04T18:53:16Z</time>
      </trkpt>
      <trkpt lat="48.98295" lon="2.05595">
        <ele>68</ele>
        <time>2019-07-04T18:53:25Z</time>
      </trkpt>
      <trkpt lat="48.983" lon="2.05607">
        <ele>68</ele>
        <time>2019-07-04T18:53:33Z</time>
      </trkpt>
      <trkpt lat="48.9831" lon="2.05608">
        <ele>68</ele>
        <time>2019-07-04T18:53:41Z</time>
      </trkpt>
      <trkpt lat="48.98318" lon="2.05617">
        <ele>68</ele>
        <time>2019-07-04T18:53:50Z</time>
      </trkpt>
      <trkpt lat="48.98317" lon="2.05632">
        <ele>68</ele>
        <time>2019-07-04T18:53:59Z</time>
      </trkpt>
      <trkpt lat="48.98312" lon="2.05644">
        <ele>67</ele>
        <time>2019-07-04T18:54:06Z</time>
      </trkpt>
      <trkpt lat="48.98306" lon="2.05655">
        <ele>67</ele>
        <time>2019-07-04T18:54:14Z</time>
      </trkpt>
      <trkpt lat="48.98297" lon="2.05662">
        <ele>67</ele>
        <time>2019-07-04T18:54:21Z</time>
      </trkpt>
      <trkpt lat="48.9829" lon="2.05672">
        <ele>62</ele>
        <time>2019-07-04T18:54:28Z</time>
      </trkpt>
      <trkpt lat="48.98283" lon="2.05681">
        <ele>62</ele>
        <time>2019-07-04T18:54:35Z</time>
      </trkpt>
      <trkpt lat="48.98276" lon="2.05691">
        <ele>61</ele>
        <time>2019-07-04T18:54:41Z</time>
      </trkpt>
      <trkpt lat="48.98267" lon="2.05693">
        <ele>61</ele>
        <time>2019-07-04T18:54:50Z</time>
      </trkpt>
      <trkpt lat="48.98258" lon="2.05696">
        <ele>61</ele>
        <time>2019-07-04T18:55:02Z</time>
      </trkpt>
      <trkpt lat="48.98265" lon="2.05708">
        <ele>60</ele>
        <time>2019-07-04T18:55:10Z</time>
      </trkpt>
      <trkpt lat="48.98269" lon="2.05721">
        <ele>59</ele>
        <time>2019-07-04T18:55:17Z</time>
      </trkpt>
      <trkpt lat="48.98269" lon="2.05736">
        <ele>58</ele>
        <time>2019-07-04T18:55:24Z</time>
      </trkpt>
      <trkpt lat="48.98267" lon="2.05751">
        <ele>54</ele>
        <time>2019-07-04T18:55:32Z</time>
      </trkpt>
      <trkpt lat="48.98262" lon="2.05764">
        <ele>54</ele>
        <time>2019-07-04T18:55:39Z</time>
      </trkpt>
      <trkpt lat="48.98258" lon="2.05776">
        <ele>54</ele>
        <time>2019-07-04T18:55:49Z</time>
      </trkpt>
      <trkpt lat="48.98251" lon="2.05786">
        <ele>54</ele>
        <time>2019-07-04T18:55:58Z</time>
      </trkpt>
      <trkpt lat="48.98246" lon="2.05797">
        <ele>50</ele>
        <time>2019-07-04T18:56:08Z</time>
      </trkpt>
      <trkpt lat="48.98238" lon="2.05805">
        <ele>49</ele>
        <time>2019-07-04T18:56:16Z</time>
      </trkpt>
      <trkpt lat="48.98229" lon="2.05814">
        <ele>49</ele>
        <time>2019-07-04T18:56:23Z</time>
      </trkpt>
      <trkpt lat="48.98222" lon="2.05821">
        <ele>48</ele>
        <time>2019-07-04T18:56:29Z</time>
      </trkpt>
      <trkpt lat="48.98216" lon="2.05833">
        <ele>48</ele>
        <time>2019-07-04T18:56:38Z</time>
      </trkpt>
      <trkpt lat="48.98211" lon="2.05844">
        <ele>43</ele>
        <time>2019-07-04T18:56:44Z</time>
      </trkpt>
      <trkpt lat="48.98202" lon="2.05849">
        <ele>42</ele>
        <time>2019-07-04T18:56:57Z</time>
      </trkpt>
      <trkpt lat="48.98193" lon="2.05843">
        <ele>42</ele>
        <time>2019-07-04T18:57:04Z</time>
      </trkpt>
      <trkpt lat="48.98183" lon="2.05841">
        <ele>42</ele>
        <time>2019-07-04T18:57:13Z</time>
      </trkpt>
      <trkpt lat="48.98174" lon="2.05841">
        <ele>41</ele>
        <time>2019-07-04T18:57:20Z</time>
      </trkpt>
      <trkpt lat="48.9817" lon="2.05855">
        <ele>41</ele>
        <time>2019-07-04T18:57:27Z</time>
      </trkpt>
      <trkpt lat="48.98166" lon="2.05868">
        <ele>37</ele>
        <time>2019-07-04T18:57:37Z</time>
      </trkpt>
      <trkpt lat="48.98161" lon="2.05883">
        <ele>36</ele>
        <time>2019-07-04T18:57:50Z</time>
      </trkpt>
      <trkpt lat="48.98158" lon="2.05896">
        <ele>36</ele>
        <time>2019-07-04T18:57:56Z</time>
      </trkpt>
      <trkpt lat="48.98155" lon="2.0591">
        <ele>35</ele>
        <time>2019-07-04T18:58:05Z</time>
      </trkpt>
      <trkpt lat="48.98152" lon="2.05925">
        <ele>33</ele>
        <time>2019-07-04T18:58:16Z</time>
      </trkpt>
      <trkpt lat="48.98146" lon="2.05936">
        <ele>32</ele>
        <time>2019-07-04T18:58:25Z</time>
      </trkpt>
      <trkpt lat="48.98146" lon="2.05952">
        <ele>31</ele>
        <time>2019-07-04T18:58:35Z</time>
      </trkpt>
      <trkpt lat="48.98144" lon="2.05966">
        <ele>30</ele>
        <time>2019-07-04T18:58:47Z</time>
      </trkpt>
      <trkpt lat="48.98143" lon="2.0598">
        <ele>30</ele>
        <time>2019-07-04T18:58:55Z</time>
      </trkpt>
      <trkpt lat="48.98151" lon="2.05989">
        <ele>30</ele>
        <time>2019-07-04T18:59:02Z</time>
      </trkpt>
      <trkpt lat="48.98158" lon="2.05998">
        <ele>29</ele>
        <time>2019-07-04T18:59:11Z</time>
      </trkpt>
      <trkpt lat="48.98164" lon="2.0601">
        <ele>28</ele>
        <time>2019-07-04T18:59:19Z</time>
      </trkpt>
      <trkpt lat="48.98159" lon="2.06023">
        <ele>27</ele>
        <time>2019-07-04T18:59:27Z</time>
      </trkpt>
      <trkpt lat="48.98157" lon="2.06038">
        <ele>26</ele>
        <time>2019-07-04T18:59:34Z</time>
      </trkpt>
      <trkpt lat="48.9815" lon="2.06049">
        <ele>26</ele>
        <time>2019-07-04T18:59:42Z</time>
      </trkpt>
      <trkpt lat="48.98148" lon="2.06063">
        <ele>26</ele>
        <time>2019-07-04T18:59:49Z</time>
      </trkpt>
      <trkpt lat="48.98143" lon="2.06075">
        <ele>25</ele>
        <time>2019-07-04T18:59:56Z</time>
      </trkpt>
      <trkpt lat="48.98135" lon="2.06086">
        <ele>24</ele>
        <time>2019-07-04T19:00:04Z</time>
      </trkpt>
      <trkpt lat="48.98127" lon="2.06092">
        <ele>24</ele>
        <time>2019-07-04T19:00:28Z</time>
      </trkpt>
      <trkpt lat="48.98118" lon="2.06085">
        <ele>24</ele>
        <time>2019-07-04T19:00:49Z</time>
      </trkpt>
      <trkpt lat="48.98126" lon="2.06093">
        <ele>24</ele>
        <time>2019-07-04T19:02:22Z</time>
      </trkpt>
      <trkpt lat="48.98135" lon="2.06087">
        <ele>24</ele>
        <time>2019-07-04T19:02:37Z</time>
      </trkpt>
      <trkpt lat="48.98143" lon="2.06079">
        <ele>25</ele>
        <time>2019-07-04T19:03:09Z</time>
      </trkpt>
      <trkpt lat="48.98152" lon="2.06085">
        <ele>24</ele>
        <time>2019-07-04T19:03:17Z</time>
      </trkpt>
      <trkpt lat="48.98159" lon="2.06095">
        <ele>24</ele>
        <time>2019-07-04T19:03:24Z</time>
      </trkpt>
      <trkpt lat="48.98166" lon="2.06104">
        <ele>24</ele>
        <time>2019-07-04T19:03:30Z</time>
      </trkpt>
      <trkpt lat="48.98173" lon="2.06116">
        <ele>24</ele>
        <time>2019-07-04T19:03:39Z</time>
      </trkpt>
      <trkpt lat="48.98181" lon="2.06122">
        <ele>24</ele>
        <time>2019-07-04T19:03:49Z</time>
      </trkpt>
      <trkpt lat="48.98189" lon="2.06128">
        <ele>24</ele>
        <time>2019-07-04T19:04:00Z</time>
      </trkpt>
      <trkpt lat="48.98198" lon="2.06133">
        <ele>24</ele>
        <time>2019-07-04T19:04:07Z</time>
      </trkpt>
      <trkpt lat="48.98205" lon="2.06143">
        <ele>24</ele>
        <time>2019-07-04T19:04:18Z</time>
      </trkpt>
      <trkpt lat="48.98212" lon="2.06153">
        <ele>24</ele>
        <time>2019-07-04T19:04:25Z</time>
      </trkpt>
      <trkpt lat="48.98219" lon="2.06164">
        <ele>24</ele>
        <time>2019-07-04T19:04:34Z</time>
      </trkpt>
      <trkpt lat="48.98227" lon="2.06172">
        <ele>23</ele>
        <time>2019-07-04T19:04:41Z</time>
      </trkpt>
      <trkpt lat="48.98235" lon="2.06177">
        <ele>23</ele>
        <time>2019-07-04T19:04:51Z</time>
      </trkpt>
      <trkpt lat="48.98243" lon="2.06186">
        <ele>23</ele>
        <time>2019-07-04T19:05:00Z</time>
      </trkpt>
      <trkpt lat="48.9825" lon="2.06195">
        <ele>24</ele>
        <time>2019-07-04T19:05:10Z</time>
      </trkpt>
      <trkpt lat="48.98258" lon="2.06203">
        <ele>24</ele>
        <time>2019-07-04T19:05:16Z</time>
      </trkpt>
      <trkpt lat="48.98268" lon="2.06207">
        <ele>24</ele>
        <time>2019-07-04T19:05:25Z</time>
      </trkpt>
      <trkpt lat="48.98275" lon="2.06217">
        <ele>24</ele>
        <time>2019-07-04T19:05:33Z</time>
      </trkpt>
      <trkpt lat="48.98283" lon="2.06227">
        <ele>24</ele>
        <time>2019-07-04T19:05:42Z</time>
      </trkpt>
      <trkpt lat="48.98291" lon="2.06235">
        <ele>24</ele>
        <time>2019-07-04T19:05:49Z</time>
      </trkpt>
      <trkpt lat="48.983" lon="2.06242">
        <ele>24</ele>
        <time>2019-07-04T19:05:57Z</time>
      </trkpt>
      <trkpt lat="48.98309" lon="2.06247">
        <ele>24</ele>
        <time>2019-07-04T19:06:05Z</time>
      </trkpt>
      <trkpt lat="48.98317" lon="2.06252">
        <ele>24</ele>
        <time>2019-07-04T19:06:13Z</time>
      </trkpt>
      <trkpt lat="48.98324" lon="2.06263">
        <ele>24</ele>
        <time>2019-07-04T19:06:22Z</time>
      </trkpt>
      <trkpt lat="48.98331" lon="2.06273">
        <ele>24</ele>
        <time>2019-07-04T19:06:29Z</time>
      </trkpt>
      <trkpt lat="48.9834" lon="2.06278">
        <ele>24</ele>
        <time>2019-07-04T19:06:39Z</time>
      </trkpt>
      <trkpt lat="48.9835" lon="2.06279">
        <ele>24</ele>
        <time>2019-07-04T19:06:47Z</time>
      </trkpt>
      <trkpt lat="48.98357" lon="2.06291">
        <ele>24</ele>
        <time>2019-07-04T19:06:55Z</time>
      </trkpt>
      <trkpt lat="48.98362" lon="2.06302">
        <ele>24</ele>
        <time>2019-07-04T19:07:02Z</time>
      </trkpt>
      <trkpt lat="48.9837" lon="2.0631">
        <ele>24</ele>
        <time>2019-07-04T19:07:11Z</time>
      </trkpt>
      <trkpt lat="48.9838" lon="2.06318">
        <ele>24</ele>
        <time>2019-07-04T19:07:21Z</time>
      </trkpt>
      <trkpt lat="48.98388" lon="2.06326">
        <ele>23</ele>
        <time>2019-07-04T19:07:29Z</time>
      </trkpt>
      <trkpt lat="48.98395" lon="2.06338">
        <ele>22</ele>
        <time>2019-07-04T19:07:37Z</time>
      </trkpt>
      <trkpt lat="48.984" lon="2.06351">
        <ele>22</ele>
        <time>2019-07-04T19:07:44Z</time>
      </trkpt>
      <trkpt lat="48.98407" lon="2.06361">
        <ele>22</ele>
        <time>2019-07-04T19:07:52Z</time>
      </trkpt>
      <trkpt lat="48.98415" lon="2.06368">
        <ele>22</ele>
        <time>2019-07-04T19:08:00Z</time>
      </trkpt>
      <trkpt lat="48.98418" lon="2.06381">
        <ele>22</ele>
        <time>2019-07-04T19:08:12Z</time>
      </trkpt>
      <trkpt lat="48.9842" lon="2.06395">
        <ele>21</ele>
        <time>2019-07-04T19:08:25Z</time>
      </trkpt>
      <trkpt lat="48.9842" lon="2.06409">
        <ele>21</ele>
        <time>2019-07-04T19:08:46Z</time>
      </trkpt>
      <trkpt lat="48.98425" lon="2.06421">
        <ele>20</ele>
        <time>2019-07-04T19:10:07Z</time>
      </trkpt>
      <trkpt lat="48.98417" lon="2.06413">
        <ele>20</ele>
        <time>2019-07-04T19:13:22Z</time>
      </trkpt>
      <trkpt lat="48.98426" lon="2.0641">
        <ele>21</ele>
        <time>2019-07-04T19:15:25Z</time>
      </trkpt>
      <trkpt lat="48.98418" lon="2.06416">
        <ele>20</ele>
        <time>2019-07-04T19:21:27Z</time>
      </trkpt>
      <trkpt lat="48.98425" lon="2.06405">
        <ele>21</ele>
        <time>2019-07-04T19:25:14Z</time>
      </trkpt>
      <trkpt lat="48.98424" lon="2.06419">
        <ele>20</ele>
        <time>2019-07-04T19:26:52Z</time>
      </trkpt>
      <trkpt lat="48.98416" lon="2.06412">
        <ele>20</ele>
        <time>2019-07-04T19:34:03Z</time>
      </trkpt>
      <trkpt lat="48.98423" lon="2.0642">
        <ele>20</ele>
        <time>2019-07-04T19:42:02Z</time>
      </trkpt>
      <trkpt lat="48.98421" lon="2.06407">
        <ele>21</ele>
        <time>2019-07-04T19:43:42Z</time>
      </trkpt>
      <trkpt lat="48.98424" lon="2.0642">
        <ele>20</ele>
        <time>2019-07-04T19:44:45Z</time>
      </trkpt>
      <trkpt lat="48.98432" lon="2.06429">
        <ele>20</ele>
        <time>2019-07-04T19:44:54Z</time>
      </trkpt>
      <trkpt lat="48.98438" lon="2.06439">
        <ele>20</ele>
        <time>2019-07-04T19:45:03Z</time>
      </trkpt>
      <trkpt lat="48.98444" lon="2.0645">
        <ele>20</ele>
        <time>2019-07-04T19:45:14Z</time>
      </trkpt>
      <trkpt lat="48.98447" lon="2.06464">
        <ele>20</ele>
        <time>2019-07-04T19:45:25Z</time>
      </trkpt>
      <trkpt lat="48.98451" lon="2.06477">
        <ele>20</ele>
        <time>2019-07-04T19:45:36Z</time>
      </trkpt>
      <trkpt lat="48.98458" lon="2.06487">
        <ele>20</ele>
        <time>2019-07-04T19:45:43Z</time>
      </trkpt>
      <trkpt lat="48.98465" lon="2.065">
        <ele>20</ele>
        <time>2019-07-04T19:45:51Z</time>
      </trkpt>
      <trkpt lat="48.98469" lon="2.06513">
        <ele>20</ele>
        <time>2019-07-04T19:46:04Z</time>
      </trkpt>
      <trkpt lat="48.98474" lon="2.06525">
        <ele>20</ele>
        <time>2019-07-04T19:46:12Z</time>
      </trkpt>
      <trkpt lat="48.98481" lon="2.06535">
        <ele>20</ele>
        <time>2019-07-04T19:46:19Z</time>
      </trkpt>
      <trkpt lat="48.98489" lon="2.06545">
        <ele>19</ele>
        <time>2019-07-04T19:46:25Z</time>
      </trkpt>
      <trkpt lat="48.98495" lon="2.06555">
        <ele>19</ele>
        <time>2019-07-04T19:46:35Z</time>
      </trkpt>
      <trkpt lat="48.98502" lon="2.06566">
        <ele>20</ele>
        <time>2019-07-04T19:46:43Z</time>
      </trkpt>
      <trkpt lat="48.98507" lon="2.06578">
        <ele>20</ele>
        <time>2019-07-04T19:46:51Z</time>
      </trkpt>
      <trkpt lat="48.98511" lon="2.06592">
        <ele>20</ele>
        <time>2019-07-04T19:47:01Z</time>
      </trkpt>
      <trkpt lat="48.98516" lon="2.06604">
        <ele>20</ele>
        <time>2019-07-04T19:47:07Z</time>
      </trkpt>
      <trkpt lat="48.98521" lon="2.06616">
        <ele>21</ele>
        <time>2019-07-04T19:47:16Z</time>
      </trkpt>
      <trkpt lat="48.98524" lon="2.06629">
        <ele>21</ele>
        <time>2019-07-04T19:47:28Z</time>
      </trkpt>
      <trkpt lat="48.98526" lon="2.06645">
        <ele>21</ele>
        <time>2019-07-04T19:47:37Z</time>
      </trkpt>
      <trkpt lat="48.98529" lon="2.0666">
        <ele>21</ele>
        <time>2019-07-04T19:47:47Z</time>
      </trkpt>
      <trkpt lat="48.98533" lon="2.06674">
        <ele>22</ele>
        <time>2019-07-04T19:47:55Z</time>
      </trkpt>
      <trkpt lat="48.98539" lon="2.06684">
        <ele>22</ele>
        <time>2019-07-04T19:48:03Z</time>
      </trkpt>
      <trkpt lat="48.98541" lon="2.06699">
        <ele>22</ele>
        <time>2019-07-04T19:48:11Z</time>
      </trkpt>
      <trkpt lat="48.98543" lon="2.06712">
        <ele>22</ele>
        <time>2019-07-04T19:48:20Z</time>
      </trkpt>
      <trkpt lat="48.98548" lon="2.06724">
        <ele>22</ele>
        <time>2019-07-04T19:48:29Z</time>
      </trkpt>
      <trkpt lat="48.98555" lon="2.06736">
        <ele>22</ele>
        <time>2019-07-04T19:48:35Z</time>
      </trkpt>
      <trkpt lat="48.98561" lon="2.06747">
        <ele>22</ele>
        <time>2019-07-04T19:48:46Z</time>
      </trkpt>
      <trkpt lat="48.98566" lon="2.0676">
        <ele>22</ele>
        <time>2019-07-04T19:48:56Z</time>
      </trkpt>
      <trkpt lat="48.98572" lon="2.06772">
        <ele>21</ele>
        <time>2019-07-04T19:49:02Z</time>
      </trkpt>
      <trkpt lat="48.98576" lon="2.06785">
        <ele>21</ele>
        <time>2019-07-04T19:49:14Z</time>
      </trkpt>
      <trkpt lat="48.98576" lon="2.06799">
        <ele>21</ele>
        <time>2019-07-04T19:49:21Z</time>
      </trkpt>
      <trkpt lat="48.98581" lon="2.06811">
        <ele>20</ele>
        <time>2019-07-04T19:49:28Z</time>
      </trkpt>
      <trkpt lat="48.98588" lon="2.0682">
        <ele>21</ele>
        <time>2019-07-04T19:49:33Z</time>
      </trkpt>
      <trkpt lat="48.98595" lon="2.0683">
        <ele>21</ele>
        <time>2019-07-04T19:49:42Z</time>
      </trkpt>
      <trkpt lat="48.986" lon="2.06843">
        <ele>21</ele>
        <time>2019-07-04T19:49:51Z</time>
      </trkpt>
      <trkpt lat="48.98604" lon="2.06856">
        <ele>22</ele>
        <time>2019-07-04T19:50:01Z</time>
      </trkpt>
      <trkpt lat="48.98607" lon="2.06869">
        <ele>22</ele>
        <time>2019-07-04T19:50:09Z</time>
      </trkpt>
      <trkpt lat="48.98613" lon="2.0688">
        <ele>22</ele>
        <time>2019-07-04T19:50:15Z</time>
      </trkpt>
      <trkpt lat="48.9862" lon="2.06892">
        <ele>22</ele>
        <time>2019-07-04T19:50:20Z</time>
      </trkpt>
      <trkpt lat="48.98625" lon="2.06905">
        <ele>23</ele>
        <time>2019-07-04T19:50:31Z</time>
      </trkpt>
      <trkpt lat="48.98632" lon="2.06916">
        <ele>23</ele>
        <time>2019-07-04T19:50:39Z</time>
      </trkpt>
      <trkpt lat="48.98637" lon="2.06929">
        <ele>22</ele>
        <time>2019-07-04T19:50:50Z</time>
      </trkpt>
      <trkpt lat="48.98642" lon="2.06941">
        <ele>22</ele>
        <time>2019-07-04T19:50:58Z</time>
      </trkpt>
      <trkpt lat="48.98649" lon="2.06951">
        <ele>22</ele>
        <time>2019-07-04T19:51:05Z</time>
      </trkpt>
      <trkpt lat="48.98656" lon="2.06961">
        <ele>21</ele>
        <time>2019-07-04T19:51:12Z</time>
      </trkpt>
      <trkpt lat="48.98663" lon="2.06971">
        <ele>21</ele>
        <time>2019-07-04T19:51:20Z</time>
      </trkpt>
      <trkpt lat="48.98669" lon="2.06981">
        <ele>21</ele>
        <time>2019-07-04T19:51:27Z</time>
      </trkpt>
      <trkpt lat="48.98676" lon="2.06991">
        <ele>21</ele>
        <time>2019-07-04T19:51:36Z</time>
      </trkpt>
      <trkpt lat="48.98684" lon="2.06999">
        <ele>21</ele>
        <time>2019-07-04T19:51:45Z</time>
      </trkpt>
      <trkpt lat="48.98692" lon="2.07008">
        <ele>21</ele>
        <time>2019-07-04T19:51:51Z</time>
      </trkpt>
      <trkpt lat="48.98699" lon="2.07018">
        <ele>21</ele>
        <time>2019-07-04T19:51:56Z</time>
      </trkpt>
      <trkpt lat="48.98707" lon="2.07025">
        <ele>21</ele>
        <time>2019-07-04T19:52:02Z</time>
      </trkpt>
      <trkpt lat="48.98714" lon="2.07033">
        <ele>21</ele>
        <time>2019-07-04T19:52:08Z</time>
      </trkpt>
      <trkpt lat="48.98722" lon="2.07042">
        <ele>21</ele>
        <time>2019-07-04T19:52:16Z</time>
      </trkpt>
      <trkpt lat="48.98731" lon="2.07048">
        <ele>21</ele>
        <time>2019-07-04T19:52:22Z</time>
      </trkpt>
      <trkpt lat="48.98742" lon="2.07053">
        <ele>22</ele>
        <time>2019-07-04T19:52:27Z</time>
      </trkpt>
      <trkpt lat="48.98752" lon="2.07055">
        <ele>23</ele>
        <time>2019-07-04T19:52:35Z</time>
      </trkpt>
      <trkpt lat="48.98761" lon="2.07059">
        <ele>23</ele>
        <time>2019-07-04T19:52:43Z</time>
      </trkpt>
      <trkpt lat="48.98769" lon="2.07066">
        <ele>22</ele>
        <time>2019-07-04T19:52:54Z</time>
      </trkpt>
      <trkpt lat="48.98779" lon="2.07069">
        <ele>22</ele>
        <time>2019-07-04T19:53:01Z</time>
      </trkpt>
      <trkpt lat="48.98788" lon="2.07071">
        <ele>22</ele>
        <time>2019-07-04T19:53:08Z</time>
      </trkpt>
      <trkpt lat="48.98796" lon="2.07077">
        <ele>22</ele>
        <time>2019-07-04T19:53:14Z</time>
      </trkpt>
      <trkpt lat="48.98805" lon="2.07083">
        <ele>22</ele>
        <time>2019-07-04T19:53:20Z</time>
      </trkpt>
      <trkpt lat="48.98815" lon="2.07086">
        <ele>21</ele>
        <time>2019-07-04T19:53:28Z</time>
      </trkpt>
      <trkpt lat="48.98824" lon="2.07087">
        <ele>21</ele>
        <time>2019-07-04T19:53:33Z</time>
      </trkpt>
      <trkpt lat="48.98834" lon="2.0709">
        <ele>21</ele>
        <time>2019-07-04T19:53:41Z</time>
      </trkpt>
      <trkpt lat="48.98843" lon="2.0709">
        <ele>21</ele>
        <time>2019-07-04T19:53:49Z</time>
      </trkpt>
      <trkpt lat="48.98852" lon="2.07091">
        <ele>21</ele>
        <time>2019-07-04T19:53:56Z</time>
      </trkpt>
      <trkpt lat="48.98862" lon="2.07093">
        <ele>21</ele>
        <time>2019-07-04T19:54:03Z</time>
      </trkpt>
      <trkpt lat="48.98873" lon="2.07097">
        <ele>21</ele>
        <time>2019-07-04T19:54:09Z</time>
      </trkpt>
      <trkpt lat="48.98882" lon="2.07099">
        <ele>21</ele>
        <time>2019-07-04T19:54:14Z</time>
      </trkpt>
      <trkpt lat="48.98891" lon="2.07102">
        <ele>21</ele>
        <time>2019-07-04T19:54:20Z</time>
      </trkpt>
      <trkpt lat="48.989" lon="2.07107">
        <ele>21</ele>
        <time>2019-07-04T19:54:26Z</time>
      </trkpt>
      <trkpt lat="48.98909" lon="2.07111">
        <ele>21</ele>
        <time>2019-07-04T19:54:32Z</time>
      </trkpt>
      <trkpt lat="48.9892" lon="2.07112">
        <ele>20</ele>
        <time>2019-07-04T19:54:40Z</time>
      </trkpt>
      <trkpt lat="48.98929" lon="2.0711">
        <ele>20</ele>
        <time>2019-07-04T19:54:45Z</time>
      </trkpt>
      <trkpt lat="48.98938" lon="2.07104">
        <ele>20</ele>
        <time>2019-07-04T19:54:52Z</time>
      </trkpt>
      <trkpt lat="48.98945" lon="2.07092">
        <ele>20</ele>
        <time>2019-07-04T19:55:02Z</time>
      </trkpt>
      <trkpt lat="48.9895" lon="2.07079">
        <ele>22</ele>
        <time>2019-07-04T19:55:10Z</time>
      </trkpt>
      <trkpt lat="48.9895" lon="2.07064">
        <ele>22</ele>
        <time>2019-07-04T19:55:19Z</time>
      </trkpt>
      <trkpt lat="48.98944" lon="2.07075">
        <ele>22</ele>
        <time>2019-07-04T19:55:37Z</time>
      </trkpt>
      <trkpt lat="48.9894" lon="2.07089">
        <ele>20</ele>
        <time>2019-07-04T19:55:48Z</time>
      </trkpt>
      <trkpt lat="48.98937" lon="2.07102">
        <ele>20</ele>
        <time>2019-07-04T19:55:54Z</time>
      </trkpt>
      <trkpt lat="48.98932" lon="2.07115">
        <ele>20</ele>
        <time>2019-07-04T19:56:01Z</time>
      </trkpt>
      <trkpt lat="48.98926" lon="2.07128">
        <ele>20</ele>
        <time>2019-07-04T19:56:07Z</time>
      </trkpt>
      <trkpt lat="48.98921" lon="2.0714">
        <ele>20</ele>
        <time>2019-07-04T19:56:14Z</time>
      </trkpt>
      <trkpt lat="48.98917" lon="2.07152">
        <ele>20</ele>
        <time>2019-07-04T19:56:21Z</time>
      </trkpt>
      <trkpt lat="48.98912" lon="2.07166">
        <ele>19</ele>
        <time>2019-07-04T19:56:28Z</time>
      </trkpt>
      <trkpt lat="48.98907" lon="2.07178">
        <ele>20</ele>
        <time>2019-07-04T19:56:35Z</time>
      </trkpt>
      <trkpt lat="48.98906" lon="2.07192">
        <ele>21</ele>
        <time>2019-07-04T19:56:42Z</time>
      </trkpt>
      <trkpt lat="48.98903" lon="2.07205">
        <ele>21</ele>
        <time>2019-07-04T19:56:50Z</time>
      </trkpt>
      <trkpt lat="48.98898" lon="2.07217">
        <ele>21</ele>
        <time>2019-07-04T19:56:57Z</time>
      </trkpt>
      <trkpt lat="48.98893" lon="2.0723">
        <ele>21</ele>
        <time>2019-07-04T19:57:04Z</time>
      </trkpt>
      <trkpt lat="48.98889" lon="2.07243">
        <ele>22</ele>
        <time>2019-07-04T19:57:12Z</time>
      </trkpt>
      <trkpt lat="48.98885" lon="2.07256">
        <ele>23</ele>
        <time>2019-07-04T19:57:20Z</time>
      </trkpt>
      <trkpt lat="48.98878" lon="2.07267">
        <ele>23</ele>
        <time>2019-07-04T19:57:26Z</time>
      </trkpt>
      <trkpt lat="48.98874" lon="2.07279">
        <ele>23</ele>
        <time>2019-07-04T19:57:34Z</time>
      </trkpt>
      <trkpt lat="48.9887" lon="2.07292">
        <ele>23</ele>
        <time>2019-07-04T19:57:43Z</time>
      </trkpt>
      <trkpt lat="48.98864" lon="2.07302">
        <ele>23</ele>
        <time>2019-07-04T19:57:59Z</time>
      </trkpt>
      <trkpt lat="48.9886" lon="2.07315">
        <ele>23</ele>
        <time>2019-07-04T19:58:08Z</time>
      </trkpt>
      <trkpt lat="48.98865" lon="2.07304">
        <ele>23</ele>
        <time>2019-07-04T19:58:30Z</time>
      </trkpt>
      <trkpt lat="48.98873" lon="2.07295">
        <ele>23</ele>
        <time>2019-07-04T19:58:38Z</time>
      </trkpt>
      <trkpt lat="48.98877" lon="2.0728">
        <ele>23</ele>
        <time>2019-07-04T19:58:47Z</time>
      </trkpt>
      <trkpt lat="48.98879" lon="2.07265">
        <ele>23</ele>
        <time>2019-07-04T19:58:57Z</time>
      </trkpt>
      <trkpt lat="48.98873" lon="2.07254">
        <ele>23</ele>
        <time>2019-07-04T19:59:10Z</time>
      </trkpt>
      <trkpt lat="48.98867" lon="2.07242">
        <ele>22</ele>
        <time>2019-07-04T19:59:19Z</time>
      </trkpt>
      <trkpt lat="48.98858" lon="2.07235">
        <ele>22</ele>
        <time>2019-07-04T19:59:28Z</time>
      </trkpt>
      <trkpt lat="48.98849" lon="2.07229">
        <ele>22</ele>
        <time>2019-07-04T19:59:34Z</time>
      </trkpt>
      <trkpt lat="48.9884" lon="2.07228">
        <ele>22</ele>
        <time>2019-07-04T19:59:41Z</time>
      </trkpt>
      <trkpt lat="48.98831" lon="2.07228">
        <ele>22</ele>
        <time>2019-07-04T19:59:47Z</time>
      </trkpt>
      <trkpt lat="48.98822" lon="2.07229">
        <ele>22</ele>
        <time>2019-07-04T19:59:53Z</time>
      </trkpt>
      <trkpt lat="48.98812" lon="2.07232">
        <ele>22</ele>
        <time>2019-07-04T20:00:00Z</time>
      </trkpt>
      <trkpt lat="48.98803" lon="2.07225">
        <ele>22</ele>
        <time>2019-07-04T20:00:10Z</time>
      </trkpt>
      <trkpt lat="48.98796" lon="2.07216">
        <ele>21</ele>
        <time>2019-07-04T20:00:18Z</time>
      </trkpt>
      <trkpt lat="48.98788" lon="2.07207">
        <ele>21</ele>
        <time>2019-07-04T20:00:24Z</time>
      </trkpt>
      <trkpt lat="48.98778" lon="2.07202">
        <ele>21</ele>
        <time>2019-07-04T20:00:33Z</time>
      </trkpt>
      <trkpt lat="48.98768" lon="2.072">
        <ele>21</ele>
        <time>2019-07-04T20:00:40Z</time>
      </trkpt>
      <trkpt lat="48.98759" lon="2.07206">
        <ele>21</ele>
        <time>2019-07-04T20:00:49Z</time>
      </trkpt>
      <trkpt lat="48.98754" lon="2.07217">
        <ele>21</ele>
        <time>2019-07-04T20:00:56Z</time>
      </trkpt>
      <trkpt lat="48.98749" lon="2.07229">
        <ele>21</ele>
        <time>2019-07-04T20:01:02Z</time>
      </trkpt>
      <trkpt lat="48.98744" lon="2.07241">
        <ele>21</ele>
        <time>2019-07-04T20:01:08Z</time>
      </trkpt>
      <trkpt lat="48.98743" lon="2.07256">
        <ele>22</ele>
        <time>2019-07-04T20:01:14Z</time>
      </trkpt>
      <trkpt lat="48.98742" lon="2.0727">
        <ele>21</ele>
        <time>2019-07-04T20:01:21Z</time>
      </trkpt>
      <trkpt lat="48.98743" lon="2.07284">
        <ele>21</ele>
        <time>2019-07-04T20:01:29Z</time>
      </trkpt>
      <trkpt lat="48.98745" lon="2.07299">
        <ele>21</ele>
        <time>2019-07-04T20:01:36Z</time>
      </trkpt>
      <trkpt lat="48.98747" lon="2.07313">
        <ele>21</ele>
        <time>2019-07-04T20:01:44Z</time>
      </trkpt>
      <trkpt lat="48.98749" lon="2.07327">
        <ele>22</ele>
        <time>2019-07-04T20:01:52Z</time>
      </trkpt>
      <trkpt lat="48.98754" lon="2.0734">
        <ele>22</ele>
        <time>2019-07-04T20:01:59Z</time>
      </trkpt>
      <trkpt lat="48.98756" lon="2.07353">
        <ele>23</ele>
        <time>2019-07-04T20:02:07Z</time>
      </trkpt>
      <trkpt lat="48.98758" lon="2.07367">
        <ele>23</ele>
        <time>2019-07-04T20:02:17Z</time>
      </trkpt>
      <trkpt lat="48.98759" lon="2.07381">
        <ele>23</ele>
        <time>2019-07-04T20:02:23Z</time>
      </trkpt>
      <trkpt lat="48.98763" lon="2.07396">
        <ele>23</ele>
        <time>2019-07-04T20:02:32Z</time>
      </trkpt>
      <trkpt lat="48.98765" lon="2.0741">
        <ele>22</ele>
        <time>2019-07-04T20:02:39Z</time>
      </trkpt>
      <trkpt lat="48.98768" lon="2.07424">
        <ele>23</ele>
        <time>2019-07-04T20:02:48Z</time>
      </trkpt>
      <trkpt lat="48.98773" lon="2.07435">
        <ele>23</ele>
        <time>2019-07-04T20:02:56Z</time>
      </trkpt>
      <trkpt lat="48.98776" lon="2.07449">
        <ele>24</ele>
        <time>2019-07-04T20:03:04Z</time>
      </trkpt>
      <trkpt lat="48.98779" lon="2.07462">
        <ele>24</ele>
        <time>2019-07-04T20:03:12Z</time>
      </trkpt>
      <trkpt lat="48.98784" lon="2.07476">
        <ele>24</ele>
        <time>2019-07-04T20:03:21Z</time>
      </trkpt>
      <trkpt lat="48.98789" lon="2.07488">
        <ele>24</ele>
        <time>2019-07-04T20:03:29Z</time>
      </trkpt>
      <trkpt lat="48.98794" lon="2.07499">
        <ele>24</ele>
        <time>2019-07-04T20:03:38Z</time>
      </trkpt>
      <trkpt lat="48.98796" lon="2.07514">
        <ele>23</ele>
        <time>2019-07-04T20:03:46Z</time>
      </trkpt>
      <trkpt lat="48.98795" lon="2.07529">
        <ele>23</ele>
        <time>2019-07-04T20:03:55Z</time>
      </trkpt>
      <trkpt lat="48.988" lon="2.07542">
        <ele>23</ele>
        <time>2019-07-04T20:06:46Z</time>
      </trkpt>
      <trkpt lat="48.98805" lon="2.07554">
        <ele>22</ele>
        <time>2019-07-04T20:06:56Z</time>
      </trkpt>
      <trkpt lat="48.9881" lon="2.07566">
        <ele>22</ele>
        <time>2019-07-04T20:07:05Z</time>
      </trkpt>
      <trkpt lat="48.98818" lon="2.07576">
        <ele>22</ele>
        <time>2019-07-04T20:07:37Z</time>
      </trkpt>
      <trkpt lat="48.98823" lon="2.0759">
        <ele>20</ele>
        <time>2019-07-04T20:07:44Z</time>
      </trkpt>
      <trkpt lat="48.98829" lon="2.07601">
        <ele>20</ele>
        <time>2019-07-04T20:07:51Z</time>
      </trkpt>
      <trkpt lat="48.98833" lon="2.07614">
        <ele>22</ele>
        <time>2019-07-04T20:07:58Z</time>
      </trkpt>
      <trkpt lat="48.98836" lon="2.07627">
        <ele>22</ele>
        <time>2019-07-04T20:08:04Z</time>
      </trkpt>
      <trkpt lat="48.98836" lon="2.07641">
        <ele>21</ele>
        <time>2019-07-04T20:08:11Z</time>
      </trkpt>
      <trkpt lat="48.98835" lon="2.07655">
        <ele>20</ele>
        <time>2019-07-04T20:08:18Z</time>
      </trkpt>
    </trkseg>
  </trk>
</gpx>